AFR443 SBGL-LFPG
Flight info
| Callsign | AFR443 |
|---|---|
| Flight time | N/A |
| Altitude | 31000 |
| Route | UKENU UN857 EDVUP/N0501F330 UN857 FNR/N0475F270 UB623 CVS/N0489F330 UN873 IPERA/N0482F340 DCT GDV DCT VASTO UN858 IBLIV/N0477F360 UN858 AKUDA/N0424F240 UZ1 VFA UL14 ALAGU/N0474F360 DCT BABOV DCT DELOG DCT YURZI UL14 TEPRA UN867 MOKOR/N0465F340 UN741 NTS/N0455F300 UN741 KEPER |
| Aircraft | B77W/H-SDE1E2E3FGHIJ2J3J4J5M1RWXY/LB1D1 |
Departure
| Time | N/A |
|---|---|
| Airport | Rio Galeão – Tom Jobim International Airport (SBGL) |
Arrival
| Time | 2026-05-06 05:53 |
|---|---|
| Airport | Charles de Gaulle International Airport (LFPG) |
| Time | Latitude | Longitude | Altitude | Speed | Heading |
|---|---|---|---|---|---|
| 2026-05-05 22:00 | -9.94123 | -35.54359 | 31027 ft | 487 kts | 28° |
| 2026-05-05 22:01 | -9.91162 | -35.52638 | 31025 ft | 486 kts | 28° |
| 2026-05-05 22:01 | -9.85268 | -35.49214 | 31024 ft | 485 kts | 28° |
| 2026-05-05 22:02 | -9.79341 | -35.45772 | 31028 ft | 486 kts | 28° |
| 2026-05-05 22:02 | -9.73400 | -35.42324 | 31025 ft | 486 kts | 28° |
| 2026-05-05 22:03 | -9.67493 | -35.38897 | 31026 ft | 486 kts | 28° |
| 2026-05-05 22:03 | -9.61563 | -35.35457 | 31027 ft | 487 kts | 28° |
| 2026-05-05 22:04 | -9.55632 | -35.32018 | 31020 ft | 485 kts | 28° |
| 2026-05-05 22:04 | -9.49735 | -35.28601 | 31022 ft | 486 kts | 28° |
| 2026-05-05 22:05 | -9.43780 | -35.25151 | 31027 ft | 486 kts | 28° |
| 2026-05-05 22:05 | -9.37816 | -35.21698 | 31024 ft | 485 kts | 28° |
| 2026-05-05 22:06 | -9.31898 | -35.18272 | 31025 ft | 486 kts | 28° |
| 2026-05-05 22:06 | -9.25971 | -35.14843 | 31024 ft | 486 kts | 28° |
| 2026-05-05 22:07 | -9.20060 | -35.11424 | 31021 ft | 485 kts | 28° |
| 2026-05-05 22:07 | -9.14178 | -35.08024 | 31019 ft | 486 kts | 28° |
| 2026-05-05 22:08 | -9.08255 | -35.04600 | 31017 ft | 485 kts | 28° |
| 2026-05-05 22:08 | -9.02151 | -35.01613 | 31016 ft | 483 kts | 21° |
| 2026-05-05 22:09 | -8.95864 | -34.98998 | 31011 ft | 484 kts | 21° |
| 2026-05-05 22:09 | -8.89595 | -34.96390 | 31012 ft | 484 kts | 21° |
| 2026-05-05 22:10 | -8.83307 | -34.93775 | 31013 ft | 486 kts | 21° |
| 2026-05-05 22:10 | -8.77030 | -34.91164 | 31011 ft | 485 kts | 21° |
| 2026-05-05 22:11 | -8.70729 | -34.88543 | 31013 ft | 485 kts | 21° |
| 2026-05-05 22:11 | -8.64433 | -34.85925 | 31012 ft | 486 kts | 21° |
| 2026-05-05 22:12 | -8.58119 | -34.83300 | 31012 ft | 486 kts | 21° |
| 2026-05-05 22:12 | -8.51796 | -34.80673 | 31011 ft | 487 kts | 21° |
| 2026-05-05 22:13 | -8.45463 | -34.78041 | 31011 ft | 487 kts | 21° |
| 2026-05-05 22:13 | -8.39168 | -34.75427 | 31007 ft | 487 kts | 21° |
| 2026-05-05 22:14 | -8.32828 | -34.72795 | 31011 ft | 488 kts | 21° |
| 2026-05-05 22:14 | -8.26513 | -34.70174 | 31011 ft | 488 kts | 21° |
| 2026-05-05 22:15 | -8.20160 | -34.67539 | 31011 ft | 488 kts | 21° |
| 2026-05-05 22:15 | -8.13857 | -34.64923 | 31008 ft | 488 kts | 22° |
| 2026-05-05 22:16 | -8.07748 | -34.61770 | 31010 ft | 490 kts | 27° |
| 2026-05-05 22:16 | -8.01722 | -34.58503 | 31001 ft | 490 kts | 27° |
| 2026-05-05 22:17 | -7.95662 | -34.55221 | 31004 ft | 490 kts | 27° |
| 2026-05-05 22:17 | -7.89612 | -34.51949 | 31002 ft | 490 kts | 27° |
| 2026-05-05 22:18 | -7.83532 | -34.48663 | 31002 ft | 490 kts | 27° |
| 2026-05-05 22:18 | -7.77487 | -34.45397 | 31003 ft | 490 kts | 27° |
| 2026-05-05 22:19 | -7.71383 | -34.42168 | 31001 ft | 490 kts | 26° |
| 2026-05-05 22:19 | -7.65272 | -34.38997 | 31001 ft | 491 kts | 26° |
| 2026-05-05 22:20 | -7.59142 | -34.35813 | 30999 ft | 491 kts | 26° |
| 2026-05-05 22:20 | -7.53033 | -34.32639 | 30997 ft | 491 kts | 26° |
| 2026-05-05 22:21 | -7.46926 | -34.29465 | 30992 ft | 491 kts | 26° |
| 2026-05-05 22:21 | -7.40811 | -34.26287 | 30988 ft | 491 kts | 26° |
| 2026-05-05 22:22 | -7.34659 | -34.23090 | 30986 ft | 493 kts | 26° |
| 2026-05-05 22:22 | -7.28508 | -34.19896 | 30991 ft | 494 kts | 26° |
| 2026-05-05 22:23 | -7.22365 | -34.16706 | 30992 ft | 493 kts | 26° |
| 2026-05-05 22:23 | -7.16226 | -34.13518 | 30992 ft | 493 kts | 26° |
| 2026-05-05 22:24 | -7.10082 | -34.10330 | 30992 ft | 493 kts | 26° |
| 2026-05-05 22:24 | -7.03940 | -34.07143 | 30993 ft | 494 kts | 26° |
| 2026-05-05 22:25 | -6.97769 | -34.03943 | 30988 ft | 495 kts | 26° |
| 2026-05-05 22:25 | -6.91596 | -34.00742 | 30990 ft | 495 kts | 26° |
| 2026-05-05 22:26 | -6.85442 | -33.97552 | 30990 ft | 494 kts | 26° |
| 2026-05-05 22:26 | -6.79268 | -33.94352 | 30996 ft | 497 kts | 26° |
| 2026-05-05 22:26 | -6.76148 | -33.92736 | 31119 ft | 497 kts | 26° |
| 2026-05-05 22:27 | -6.73063 | -33.91138 | 31295 ft | 500 kts | 26° |
| 2026-05-05 22:27 | -6.69943 | -33.89522 | 31474 ft | 501 kts | 26° |
| 2026-05-05 22:27 | -6.66845 | -33.87917 | 31648 ft | 499 kts | 26° |
| 2026-05-05 22:27 | -6.63697 | -33.86287 | 31834 ft | 499 kts | 26° |
| 2026-05-05 22:28 | -6.60613 | -33.84690 | 32015 ft | 500 kts | 26° |
| 2026-05-05 22:28 | -6.57478 | -33.83068 | 32195 ft | 499 kts | 26° |
| 2026-05-05 22:28 | -6.54385 | -33.81467 | 32380 ft | 499 kts | 26° |
| 2026-05-05 22:28 | -6.51279 | -33.79859 | 32564 ft | 499 kts | 26° |
| 2026-05-05 22:29 | -6.48172 | -33.78252 | 32755 ft | 498 kts | 26° |
| 2026-05-05 22:29 | -6.45067 | -33.76645 | 32956 ft | 498 kts | 26° |
| 2026-05-05 22:29 | -6.41965 | -33.75041 | 32988 ft | 500 kts | 26° |
| 2026-05-05 22:30 | -6.35725 | -33.71813 | 32991 ft | 498 kts | 26° |
| 2026-05-05 22:30 | -6.29459 | -33.68575 | 33000 ft | 511 kts | 26° |
| 2026-05-05 22:31 | -6.23040 | -33.65257 | 32989 ft | 511 kts | 26° |
| 2026-05-05 22:31 | -6.16705 | -33.61983 | 32985 ft | 510 kts | 26° |
| 2026-05-05 22:32 | -6.10325 | -33.58686 | 32978 ft | 510 kts | 26° |
| 2026-05-05 22:32 | -6.03943 | -33.55390 | 32975 ft | 510 kts | 25° |
| 2026-05-05 22:33 | -5.97579 | -33.52104 | 32972 ft | 512 kts | 25° |
| 2026-05-05 22:33 | -5.91198 | -33.48811 | 32976 ft | 513 kts | 25° |
| 2026-05-05 22:34 | -5.84833 | -33.45525 | 32977 ft | 511 kts | 25° |
| 2026-05-05 22:34 | -5.78461 | -33.42238 | 32972 ft | 510 kts | 25° |
| 2026-05-05 22:35 | -5.72052 | -33.38932 | 32977 ft | 512 kts | 25° |
| 2026-05-05 22:35 | -5.65715 | -33.35664 | 32974 ft | 512 kts | 25° |
| 2026-05-05 22:36 | -5.59306 | -33.32360 | 32969 ft | 512 kts | 25° |
| 2026-05-05 22:36 | -5.52914 | -33.29066 | 32969 ft | 512 kts | 25° |
| 2026-05-05 22:37 | -5.46501 | -33.25761 | 32970 ft | 512 kts | 25° |
| 2026-05-05 22:37 | -5.40130 | -33.22479 | 32969 ft | 512 kts | 25° |
| 2026-05-05 22:38 | -5.33721 | -33.19178 | 32970 ft | 513 kts | 25° |
| 2026-05-05 22:38 | -5.27315 | -33.15879 | 32968 ft | 513 kts | 25° |
| 2026-05-05 22:39 | -5.20899 | -33.12576 | 32970 ft | 513 kts | 25° |
| 2026-05-05 22:39 | -5.14494 | -33.09280 | 32969 ft | 513 kts | 25° |
| 2026-05-05 22:40 | -5.08083 | -33.05981 | 32969 ft | 514 kts | 25° |
| 2026-05-05 22:40 | -5.01652 | -33.02673 | 32970 ft | 515 kts | 24° |
| 2026-05-05 22:41 | -4.95214 | -32.99361 | 32971 ft | 514 kts | 24° |
| 2026-05-05 22:41 | -4.88785 | -32.96056 | 32972 ft | 515 kts | 25° |
| 2026-05-05 22:42 | -4.82347 | -32.92746 | 32972 ft | 515 kts | 25° |
| 2026-05-05 22:42 | -4.75918 | -32.89441 | 32972 ft | 515 kts | 25° |
| 2026-05-05 22:43 | -4.69514 | -32.86150 | 32972 ft | 515 kts | 25° |
| 2026-05-05 22:43 | -4.63087 | -32.82848 | 32972 ft | 514 kts | 25° |
| 2026-05-05 22:44 | -4.56636 | -32.79530 | 32973 ft | 515 kts | 25° |
| 2026-05-05 22:44 | -4.50204 | -32.76215 | 32973 ft | 517 kts | 25° |
| 2026-05-05 22:45 | -4.43778 | -32.72903 | 32973 ft | 517 kts | 25° |
| 2026-05-05 22:45 | -4.37310 | -32.69571 | 32973 ft | 516 kts | 25° |
| 2026-05-05 22:46 | -4.30870 | -32.66254 | 32973 ft | 517 kts | 25° |
| 2026-05-05 22:46 | -4.24441 | -32.62943 | 32974 ft | 516 kts | 25° |
| 2026-05-05 22:47 | -4.17988 | -32.59621 | 32974 ft | 518 kts | 25° |
| 2026-05-05 22:47 | -4.11550 | -32.56307 | 32975 ft | 518 kts | 25° |
| 2026-05-05 22:48 | -4.05061 | -32.52968 | 32975 ft | 518 kts | 25° |
| 2026-05-05 22:48 | -3.98591 | -32.49639 | 32974 ft | 518 kts | 25° |
| 2026-05-05 22:49 | -3.92135 | -32.46318 | 32975 ft | 519 kts | 25° |
| 2026-05-05 22:49 | -3.85621 | -32.42966 | 32975 ft | 518 kts | 26° |
| 2026-05-05 22:50 | -3.79214 | -32.39597 | 32976 ft | 518 kts | 26° |
| 2026-05-05 22:50 | -3.72768 | -32.36187 | 32974 ft | 518 kts | 26° |
| 2026-05-05 22:51 | -3.66339 | -32.32789 | 32963 ft | 518 kts | 26° |
| 2026-05-05 22:51 | -3.59911 | -32.29394 | 32966 ft | 518 kts | 26° |
| 2026-05-05 22:52 | -3.53492 | -32.26006 | 32963 ft | 518 kts | 26° |
| 2026-05-05 22:52 | -3.47066 | -32.22614 | 32966 ft | 518 kts | 26° |
| 2026-05-05 22:53 | -3.40610 | -32.19208 | 32972 ft | 518 kts | 26° |
| 2026-05-05 22:53 | -3.34225 | -32.15839 | 32973 ft | 517 kts | 27° |
| 2026-05-05 22:54 | -3.27800 | -32.12451 | 32972 ft | 517 kts | 27° |
| 2026-05-05 22:54 | -3.21198 | -32.09425 | 32972 ft | 517 kts | 21° |
| 2026-05-05 22:55 | -3.14474 | -32.06635 | 32973 ft | 516 kts | 21° |
| 2026-05-05 22:55 | -3.07834 | -32.03852 | 32972 ft | 515 kts | 22° |
| 2026-05-05 22:56 | -3.01155 | -32.01036 | 32969 ft | 515 kts | 22° |
| 2026-05-05 22:56 | -2.94514 | -31.98227 | 32973 ft | 516 kts | 22° |
| 2026-05-05 22:57 | -2.87805 | -31.95383 | 32973 ft | 515 kts | 22° |
| 2026-05-05 22:57 | -2.81145 | -31.92558 | 32971 ft | 515 kts | 22° |
| 2026-05-05 22:58 | -2.74503 | -31.89739 | 32971 ft | 515 kts | 22° |
| 2026-05-05 22:58 | -2.67847 | -31.86914 | 32972 ft | 515 kts | 22° |
| 2026-05-05 22:59 | -2.61185 | -31.84086 | 32972 ft | 515 kts | 22° |
| 2026-05-05 22:59 | -2.54529 | -31.81261 | 32972 ft | 515 kts | 22° |
| 2026-05-05 23:00 | -2.44552 | -31.77027 | 32972 ft | 515 kts | 22° |
| 2026-05-05 23:00 | -2.37911 | -31.74208 | 32973 ft | 516 kts | 22° |
| 2026-05-05 23:01 | -2.31246 | -31.71380 | 32972 ft | 515 kts | 22° |
| 2026-05-05 23:01 | -2.24606 | -31.68562 | 32973 ft | 515 kts | 22° |
| 2026-05-05 23:02 | -2.17920 | -31.65726 | 32973 ft | 515 kts | 22° |
| 2026-05-05 23:02 | -2.11260 | -31.62900 | 32973 ft | 515 kts | 22° |
| 2026-05-05 23:03 | -2.04621 | -31.60084 | 32974 ft | 516 kts | 22° |
| 2026-05-05 23:03 | -1.97941 | -31.57251 | 32973 ft | 516 kts | 22° |
| 2026-05-05 23:04 | -1.91316 | -31.54441 | 32974 ft | 515 kts | 22° |
| 2026-05-05 23:04 | -1.84614 | -31.51599 | 32972 ft | 515 kts | 22° |
| 2026-05-05 23:05 | -1.77998 | -31.48793 | 32972 ft | 516 kts | 22° |
| 2026-05-05 23:05 | -1.71315 | -31.45960 | 32972 ft | 517 kts | 22° |
| 2026-05-05 23:06 | -1.64625 | -31.43123 | 32972 ft | 516 kts | 22° |
| 2026-05-05 23:06 | -1.57975 | -31.40304 | 32972 ft | 517 kts | 23° |
| 2026-05-05 23:07 | -1.51292 | -31.37471 | 32973 ft | 516 kts | 23° |
| 2026-05-05 23:07 | -1.44612 | -31.34639 | 32972 ft | 517 kts | 22° |
| 2026-05-05 23:08 | -1.37943 | -31.31812 | 32970 ft | 517 kts | 22° |
| 2026-05-05 23:08 | -1.31252 | -31.28977 | 32971 ft | 517 kts | 22° |
| 2026-05-05 23:09 | -1.24548 | -31.26135 | 32971 ft | 518 kts | 22° |
| 2026-05-05 23:09 | -1.17859 | -31.23301 | 32972 ft | 519 kts | 22° |
| 2026-05-05 23:10 | -1.11130 | -31.20449 | 32972 ft | 519 kts | 23° |
| 2026-05-05 23:10 | -1.04441 | -31.17615 | 32972 ft | 518 kts | 23° |
| 2026-05-05 23:11 | -0.97735 | -31.14773 | 32973 ft | 519 kts | 23° |
| 2026-05-05 23:11 | -0.91043 | -31.11938 | 32973 ft | 518 kts | 23° |
| 2026-05-05 23:12 | -0.84346 | -31.09100 | 32971 ft | 519 kts | 23° |
| 2026-05-05 23:12 | -0.77647 | -31.06155 | 32973 ft | 519 kts | 24° |
| 2026-05-05 23:13 | -0.71010 | -31.03166 | 32977 ft | 518 kts | 24° |
| 2026-05-05 23:13 | -0.64367 | -31.00180 | 32988 ft | 521 kts | 25° |
| 2026-05-05 23:14 | -0.57695 | -30.97184 | 32994 ft | 519 kts | 25° |
| 2026-05-05 23:14 | -0.51000 | -30.94180 | 32991 ft | 520 kts | 25° |
| 2026-05-05 23:15 | -0.44362 | -30.91204 | 32993 ft | 520 kts | 25° |
| 2026-05-05 23:15 | -0.37696 | -30.88215 | 32993 ft | 520 kts | 25° |
| 2026-05-05 23:16 | -0.31023 | -30.85224 | 32994 ft | 521 kts | 25° |
| 2026-05-05 23:16 | -0.24347 | -30.82231 | 32992 ft | 520 kts | 25° |
| 2026-05-05 23:17 | -0.17654 | -30.79231 | 32996 ft | 522 kts | 25° |
| 2026-05-05 23:17 | -0.10973 | -30.76236 | 32993 ft | 521 kts | 25° |
| 2026-05-05 23:18 | -0.04311 | -30.73250 | 32996 ft | 521 kts | 25° |
| 2026-05-05 23:18 | 0.02339 | -30.70269 | 32995 ft | 521 kts | 25° |
| 2026-05-05 23:19 | 0.09019 | -30.67275 | 32995 ft | 521 kts | 25° |
| 2026-05-05 23:19 | 0.15695 | -30.64283 | 32992 ft | 520 kts | 25° |
| 2026-05-05 23:20 | 0.22359 | -30.61296 | 32990 ft | 520 kts | 25° |
| 2026-05-05 23:20 | 0.29035 | -30.58303 | 32992 ft | 522 kts | 25° |
| 2026-05-05 23:21 | 0.35704 | -30.55314 | 32991 ft | 521 kts | 25° |
| 2026-05-05 23:21 | 0.42391 | -30.52316 | 32991 ft | 521 kts | 25° |
| 2026-05-05 23:22 | 0.49042 | -30.49334 | 32992 ft | 522 kts | 25° |
| 2026-05-05 23:22 | 0.55729 | -30.46337 | 32992 ft | 521 kts | 25° |
| 2026-05-05 23:23 | 0.62443 | -30.43326 | 32993 ft | 522 kts | 25° |
| 2026-05-05 23:23 | 0.69095 | -30.40344 | 32991 ft | 521 kts | 25° |
| 2026-05-05 23:24 | 0.75764 | -30.37354 | 32991 ft | 521 kts | 25° |
| 2026-05-05 23:24 | 0.82472 | -30.34346 | 32993 ft | 522 kts | 25° |
| 2026-05-05 23:25 | 0.89133 | -30.31359 | 32991 ft | 521 kts | 25° |
| 2026-05-05 23:25 | 0.95848 | -30.28348 | 32992 ft | 522 kts | 25° |
| 2026-05-05 23:26 | 1.02536 | -30.25349 | 32994 ft | 522 kts | 25° |
| 2026-05-05 23:26 | 1.09184 | -30.22368 | 32984 ft | 521 kts | 25° |
| 2026-05-05 23:27 | 1.15896 | -30.19357 | 32977 ft | 522 kts | 25° |
| 2026-05-05 23:27 | 1.22558 | -30.16370 | 32975 ft | 522 kts | 25° |
| 2026-05-05 23:28 | 1.29240 | -30.13372 | 32978 ft | 523 kts | 25° |
| 2026-05-05 23:28 | 1.35935 | -30.10369 | 32978 ft | 523 kts | 25° |
| 2026-05-05 23:29 | 1.42632 | -30.07365 | 32982 ft | 523 kts | 25° |
| 2026-05-05 23:29 | 1.49339 | -30.04356 | 32984 ft | 524 kts | 25° |
| 2026-05-05 23:30 | 1.56060 | -30.01341 | 32984 ft | 523 kts | 25° |
| 2026-05-05 23:30 | 1.62752 | -29.98338 | 32985 ft | 524 kts | 25° |
| 2026-05-05 23:31 | 1.69438 | -29.95339 | 32986 ft | 523 kts | 25° |
| 2026-05-05 23:31 | 1.76165 | -29.92320 | 32989 ft | 523 kts | 25° |
| 2026-05-05 23:32 | 1.82849 | -29.89321 | 32983 ft | 522 kts | 25° |
| 2026-05-05 23:32 | 1.89559 | -29.86310 | 32977 ft | 522 kts | 25° |
| 2026-05-05 23:33 | 1.96253 | -29.83305 | 32984 ft | 523 kts | 25° |
| 2026-05-05 23:33 | 2.02911 | -29.80316 | 32990 ft | 523 kts | 25° |
| 2026-05-05 23:34 | 2.09622 | -29.77304 | 32995 ft | 523 kts | 25° |
| 2026-05-05 23:34 | 2.16343 | -29.74287 | 32991 ft | 523 kts | 25° |
| 2026-05-05 23:35 | 2.23035 | -29.71282 | 32996 ft | 522 kts | 25° |
| 2026-05-05 23:35 | 2.29729 | -29.68276 | 32996 ft | 521 kts | 25° |
| 2026-05-05 23:36 | 2.36376 | -29.65291 | 32997 ft | 522 kts | 25° |
| 2026-05-05 23:36 | 2.43073 | -29.62283 | 32995 ft | 521 kts | 25° |
| 2026-05-05 23:37 | 2.49753 | -29.59283 | 32993 ft | 522 kts | 25° |
| 2026-05-05 23:37 | 2.56452 | -29.56273 | 32990 ft | 522 kts | 25° |
| 2026-05-05 23:38 | 2.63136 | -29.53270 | 32991 ft | 522 kts | 25° |
| 2026-05-05 23:38 | 2.69782 | -29.50284 | 32993 ft | 521 kts | 25° |
| 2026-05-05 23:39 | 2.76459 | -29.47283 | 32992 ft | 520 kts | 25° |
| 2026-05-05 23:39 | 2.83140 | -29.44280 | 32992 ft | 520 kts | 25° |
| 2026-05-05 23:40 | 2.89790 | -29.41291 | 32993 ft | 519 kts | 25° |
| 2026-05-05 23:40 | 2.96444 | -29.38300 | 32995 ft | 519 kts | 25° |
| 2026-05-05 23:41 | 3.03101 | -29.35307 | 32994 ft | 519 kts | 25° |
| 2026-05-05 23:41 | 3.09773 | -29.32307 | 32999 ft | 520 kts | 25° |
| 2026-05-05 23:42 | 3.16392 | -29.29329 | 32994 ft | 520 kts | 25° |
| 2026-05-05 23:42 | 3.23058 | -29.26331 | 32999 ft | 519 kts | 25° |
| 2026-05-05 23:43 | 3.29740 | -29.23325 | 32997 ft | 519 kts | 25° |
| 2026-05-05 23:43 | 3.36363 | -29.20345 | 32993 ft | 520 kts | 25° |
| 2026-05-05 23:44 | 3.43017 | -29.17351 | 32994 ft | 520 kts | 26° |
| 2026-05-05 23:44 | 3.49703 | -29.14341 | 32996 ft | 520 kts | 26° |
| 2026-05-05 23:45 | 3.56357 | -29.11346 | 32991 ft | 520 kts | 26° |
| 2026-05-05 23:45 | 3.63021 | -29.08345 | 32996 ft | 521 kts | 26° |
| 2026-05-05 23:46 | 3.69698 | -29.05338 | 32992 ft | 521 kts | 26° |
| 2026-05-05 23:46 | 3.76341 | -29.02346 | 32996 ft | 521 kts | 26° |
| 2026-05-05 23:47 | 3.83070 | -28.99316 | 32995 ft | 521 kts | 26° |
| 2026-05-05 23:47 | 3.89735 | -28.96312 | 32993 ft | 521 kts | 26° |
| 2026-05-05 23:48 | 3.96452 | -28.93286 | 32993 ft | 523 kts | 26° |
| 2026-05-05 23:48 | 4.03146 | -28.90269 | 32995 ft | 523 kts | 26° |
| 2026-05-05 23:49 | 4.09837 | -28.87252 | 32991 ft | 523 kts | 26° |
| 2026-05-05 23:49 | 4.16534 | -28.84232 | 32989 ft | 523 kts | 26° |
| 2026-05-05 23:50 | 4.23254 | -28.81202 | 32989 ft | 523 kts | 26° |
| 2026-05-05 23:50 | 4.29937 | -28.78188 | 32990 ft | 523 kts | 26° |
| 2026-05-05 23:51 | 4.36636 | -28.75166 | 32989 ft | 523 kts | 26° |
| 2026-05-05 23:51 | 4.43390 | -28.72118 | 32992 ft | 524 kts | 26° |
| 2026-05-05 23:52 | 4.50106 | -28.69087 | 32993 ft | 524 kts | 26° |
| 2026-05-05 23:52 | 4.56811 | -28.66061 | 32994 ft | 524 kts | 25° |
| 2026-05-05 23:53 | 4.63544 | -28.63021 | 32990 ft | 525 kts | 26° |
| 2026-05-05 23:53 | 4.70270 | -28.59983 | 32990 ft | 525 kts | 26° |
| 2026-05-05 23:54 | 4.76956 | -28.56963 | 32997 ft | 525 kts | 25° |
| 2026-05-05 23:54 | 4.83712 | -28.53911 | 33005 ft | 526 kts | 26° |
| 2026-05-05 23:55 | 4.90449 | -28.50867 | 33009 ft | 527 kts | 25° |
| 2026-05-05 23:55 | 4.97213 | -28.47810 | 33014 ft | 527 kts | 25° |
| 2026-05-05 23:56 | 5.03943 | -28.44767 | 33018 ft | 527 kts | 25° |
| 2026-05-05 23:56 | 5.10710 | -28.41707 | 33015 ft | 525 kts | 25° |
| 2026-05-05 23:57 | 5.17442 | -28.38662 | 33012 ft | 526 kts | 25° |
| 2026-05-05 23:57 | 5.24156 | -28.35625 | 33013 ft | 527 kts | 25° |
| 2026-05-05 23:58 | 5.30904 | -28.32571 | 33014 ft | 527 kts | 25° |
| 2026-05-05 23:58 | 5.37655 | -28.29516 | 33014 ft | 527 kts | 25° |
| 2026-05-05 23:59 | 5.44381 | -28.26471 | 33015 ft | 528 kts | 25° |
| 2026-05-05 23:59 | 5.51174 | -28.23394 | 33016 ft | 528 kts | 25° |
| 2026-05-06 00:00 | 5.57880 | -28.20357 | 33016 ft | 526 kts | 25° |
| 2026-05-06 00:00 | 5.64670 | -28.17281 | 33016 ft | 527 kts | 25° |
| 2026-05-06 00:01 | 5.71384 | -28.14238 | 33016 ft | 527 kts | 25° |
| 2026-05-06 00:01 | 5.78114 | -28.11187 | 33016 ft | 527 kts | 25° |
| 2026-05-06 00:02 | 5.84884 | -28.08118 | 33017 ft | 529 kts | 25° |
| 2026-05-06 00:02 | 5.91666 | -28.05042 | 33017 ft | 528 kts | 25° |
| 2026-05-06 00:03 | 5.98416 | -28.01979 | 33026 ft | 529 kts | 25° |
| 2026-05-06 00:03 | 6.05215 | -27.98894 | 33037 ft | 528 kts | 25° |
| 2026-05-06 00:04 | 6.11932 | -27.95845 | 33032 ft | 529 kts | 24° |
| 2026-05-06 00:04 | 6.18708 | -27.92769 | 33031 ft | 530 kts | 24° |
| 2026-05-06 00:05 | 6.28843 | -27.88165 | 33032 ft | 530 kts | 24° |
| 2026-05-06 00:06 | 6.35647 | -27.85074 | 33029 ft | 529 kts | 24° |
| 2026-05-06 00:06 | 6.42435 | -27.81988 | 33031 ft | 530 kts | 24° |
| 2026-05-06 00:07 | 6.49219 | -27.78905 | 33026 ft | 528 kts | 24° |
| 2026-05-06 00:07 | 6.55972 | -27.75834 | 33016 ft | 530 kts | 24° |
| 2026-05-06 00:08 | 6.62735 | -27.72757 | 33017 ft | 529 kts | 24° |
| 2026-05-06 00:08 | 6.69536 | -27.69663 | 33024 ft | 529 kts | 24° |
| 2026-05-06 00:09 | 6.76312 | -27.66578 | 33025 ft | 531 kts | 24° |
| 2026-05-06 00:09 | 6.83068 | -27.63502 | 33027 ft | 530 kts | 24° |
| 2026-05-06 00:10 | 6.89885 | -27.60397 | 33026 ft | 529 kts | 24° |
| 2026-05-06 00:10 | 6.96683 | -27.57301 | 33027 ft | 530 kts | 24° |
| 2026-05-06 00:11 | 7.03470 | -27.54209 | 33028 ft | 528 kts | 24° |
| 2026-05-06 00:11 | 7.10223 | -27.51130 | 33031 ft | 531 kts | 24° |
| 2026-05-06 00:12 | 7.17032 | -27.48026 | 33024 ft | 531 kts | 24° |
| 2026-05-06 00:12 | 7.23845 | -27.44918 | 33028 ft | 532 kts | 24° |
| 2026-05-06 00:13 | 7.30621 | -27.41826 | 33028 ft | 531 kts | 24° |
| 2026-05-06 00:13 | 7.37422 | -27.38722 | 33029 ft | 531 kts | 24° |
| 2026-05-06 00:14 | 7.44210 | -27.35623 | 33030 ft | 531 kts | 24° |
| 2026-05-06 00:14 | 7.50974 | -27.32534 | 33027 ft | 531 kts | 24° |
| 2026-05-06 00:15 | 7.57803 | -27.29414 | 33026 ft | 530 kts | 24° |
| 2026-05-06 00:15 | 7.64579 | -27.26317 | 33028 ft | 531 kts | 24° |
| 2026-05-06 00:16 | 7.71371 | -27.23211 | 33027 ft | 530 kts | 24° |
| 2026-05-06 00:16 | 7.78142 | -27.20115 | 33029 ft | 530 kts | 23° |
| 2026-05-06 00:17 | 7.84903 | -27.17021 | 33033 ft | 530 kts | 23° |
| 2026-05-06 00:17 | 7.91674 | -27.13922 | 33033 ft | 528 kts | 23° |
| 2026-05-06 00:18 | 7.98429 | -27.10829 | 33033 ft | 530 kts | 23° |
| 2026-05-06 00:18 | 8.05234 | -27.07713 | 33035 ft | 530 kts | 23° |
| 2026-05-06 00:19 | 8.12004 | -27.04611 | 33024 ft | 530 kts | 23° |
| 2026-05-06 00:19 | 8.18809 | -27.01491 | 33012 ft | 531 kts | 23° |
| 2026-05-06 00:20 | 8.25573 | -26.98390 | 33014 ft | 532 kts | 23° |
| 2026-05-06 00:20 | 8.32355 | -26.95279 | 33012 ft | 532 kts | 23° |
| 2026-05-06 00:21 | 8.39160 | -26.92156 | 33013 ft | 532 kts | 23° |
| 2026-05-06 00:21 | 8.45811 | -26.89103 | 33011 ft | 529 kts | 23° |
| 2026-05-06 00:22 | 8.52622 | -26.85976 | 33013 ft | 533 kts | 23° |
| 2026-05-06 00:22 | 8.59400 | -26.82861 | 33012 ft | 533 kts | 23° |
| 2026-05-06 00:23 | 8.66228 | -26.79721 | 33015 ft | 534 kts | 23° |
| 2026-05-06 00:23 | 8.73066 | -26.76575 | 33011 ft | 533 kts | 23° |
| 2026-05-06 00:24 | 8.79896 | -26.73431 | 33014 ft | 533 kts | 23° |
| 2026-05-06 00:24 | 8.86695 | -26.70301 | 33017 ft | 533 kts | 23° |
| 2026-05-06 00:25 | 8.93550 | -26.67143 | 33017 ft | 534 kts | 23° |
| 2026-05-06 00:25 | 9.00340 | -26.64015 | 33018 ft | 535 kts | 23° |
| 2026-05-06 00:26 | 9.07190 | -26.60857 | 33019 ft | 534 kts | 23° |
| 2026-05-06 00:26 | 9.14015 | -26.57709 | 33015 ft | 533 kts | 23° |
| 2026-05-06 00:27 | 9.20840 | -26.54560 | 33013 ft | 534 kts | 23° |
| 2026-05-06 00:27 | 9.27663 | -26.51411 | 33014 ft | 535 kts | 23° |
| 2026-05-06 00:28 | 9.34509 | -26.48250 | 33016 ft | 536 kts | 23° |
| 2026-05-06 00:28 | 9.41378 | -26.45076 | 33015 ft | 536 kts | 23° |
| 2026-05-06 00:29 | 9.48208 | -26.41919 | 33017 ft | 536 kts | 23° |
| 2026-05-06 00:29 | 9.55037 | -26.38762 | 33018 ft | 536 kts | 23° |
| 2026-05-06 00:30 | 9.61910 | -26.35583 | 33019 ft | 537 kts | 23° |
| 2026-05-06 00:30 | 9.68737 | -26.32423 | 33016 ft | 537 kts | 23° |
| 2026-05-06 00:31 | 9.75620 | -26.29237 | 33015 ft | 537 kts | 23° |
| 2026-05-06 00:31 | 9.82453 | -26.26071 | 33010 ft | 536 kts | 23° |
| 2026-05-06 00:32 | 9.89334 | -26.22883 | 33014 ft | 538 kts | 23° |
| 2026-05-06 00:32 | 9.96209 | -26.19695 | 33013 ft | 539 kts | 23° |
| 2026-05-06 00:33 | 10.03096 | -26.16501 | 33016 ft | 538 kts | 23° |
| 2026-05-06 00:33 | 10.09982 | -26.13305 | 33019 ft | 538 kts | 23° |
| 2026-05-06 00:34 | 10.16890 | -26.10097 | 33011 ft | 541 kts | 23° |
| 2026-05-06 00:34 | 10.23811 | -26.06883 | 33011 ft | 540 kts | 23° |
| 2026-05-06 00:35 | 10.30680 | -26.03690 | 33013 ft | 538 kts | 23° |
| 2026-05-06 00:35 | 10.37568 | -26.00487 | 33017 ft | 541 kts | 23° |
| 2026-05-06 00:36 | 10.44457 | -25.97283 | 33014 ft | 539 kts | 23° |
| 2026-05-06 00:36 | 10.51354 | -25.94073 | 33014 ft | 540 kts | 23° |
| 2026-05-06 00:37 | 10.58227 | -25.90872 | 33011 ft | 541 kts | 23° |
| 2026-05-06 00:37 | 10.65123 | -25.87659 | 33016 ft | 539 kts | 22° |
| 2026-05-06 00:38 | 10.72013 | -25.84448 | 33016 ft | 541 kts | 23° |
| 2026-05-06 00:38 | 10.78901 | -25.81236 | 33014 ft | 538 kts | 22° |
| 2026-05-06 00:39 | 10.85814 | -25.78011 | 33018 ft | 541 kts | 22° |
| 2026-05-06 00:39 | 10.92700 | -25.74796 | 33021 ft | 540 kts | 22° |
| 2026-05-06 00:40 | 10.99618 | -25.71565 | 33019 ft | 540 kts | 22° |
| 2026-05-06 00:40 | 11.06482 | -25.68357 | 33020 ft | 540 kts | 22° |
| 2026-05-06 00:41 | 11.13393 | -25.65126 | 33009 ft | 540 kts | 22° |
| 2026-05-06 00:41 | 11.20281 | -25.61904 | 33011 ft | 539 kts | 22° |
| 2026-05-06 00:42 | 11.27155 | -25.58687 | 33012 ft | 541 kts | 22° |
| 2026-05-06 00:42 | 11.34082 | -25.55443 | 33010 ft | 541 kts | 22° |
| 2026-05-06 00:43 | 11.40975 | -25.52213 | 33007 ft | 542 kts | 22° |
| 2026-05-06 00:43 | 11.47928 | -25.48954 | 33007 ft | 543 kts | 22° |
| 2026-05-06 00:44 | 11.54854 | -25.45705 | 33008 ft | 542 kts | 22° |
| 2026-05-06 00:44 | 11.61804 | -25.42444 | 33014 ft | 543 kts | 22° |
| 2026-05-06 00:45 | 11.68732 | -25.39191 | 33011 ft | 544 kts | 22° |
| 2026-05-06 00:45 | 11.75682 | -25.35925 | 33020 ft | 544 kts | 22° |
| 2026-05-06 00:46 | 11.82619 | -25.32665 | 33012 ft | 544 kts | 22° |
| 2026-05-06 00:46 | 11.89572 | -25.29394 | 33011 ft | 545 kts | 22° |
| 2026-05-06 00:47 | 11.96537 | -25.26117 | 33018 ft | 548 kts | 22° |
| 2026-05-06 00:47 | 12.03538 | -25.22820 | 33012 ft | 548 kts | 22° |
| 2026-05-06 00:48 | 12.10556 | -25.19514 | 33017 ft | 548 kts | 22° |
| 2026-05-06 00:48 | 12.17542 | -25.16220 | 33005 ft | 552 kts | 22° |
| 2026-05-06 00:49 | 12.24537 | -25.12920 | 33012 ft | 547 kts | 22° |
| 2026-05-06 00:49 | 12.31541 | -25.09615 | 33012 ft | 550 kts | 22° |
| 2026-05-06 00:50 | 12.38569 | -25.06296 | 33009 ft | 549 kts | 22° |
| 2026-05-06 00:50 | 12.45582 | -25.02982 | 33016 ft | 551 kts | 22° |
| 2026-05-06 00:51 | 12.52601 | -24.99663 | 33015 ft | 548 kts | 22° |
| 2026-05-06 00:51 | 12.59619 | -24.96343 | 33008 ft | 550 kts | 22° |
| 2026-05-06 00:52 | 12.66638 | -24.93020 | 33019 ft | 552 kts | 22° |
| 2026-05-06 00:52 | 12.73683 | -24.89683 | 33013 ft | 551 kts | 22° |
| 2026-05-06 00:53 | 12.80716 | -24.86350 | 33022 ft | 552 kts | 22° |
| 2026-05-06 00:53 | 12.87748 | -24.83015 | 33021 ft | 552 kts | 22° |
| 2026-05-06 00:54 | 12.94795 | -24.79670 | 33020 ft | 553 kts | 22° |
| 2026-05-06 00:54 | 13.01801 | -24.76343 | 33023 ft | 552 kts | 22° |
| 2026-05-06 00:55 | 13.08858 | -24.72990 | 33020 ft | 554 kts | 22° |
| 2026-05-06 00:55 | 13.15900 | -24.69642 | 33014 ft | 552 kts | 22° |
| 2026-05-06 00:56 | 13.22931 | -24.66297 | 33012 ft | 551 kts | 22° |
| 2026-05-06 00:56 | 13.30012 | -24.62927 | 33017 ft | 557 kts | 22° |
| 2026-05-06 00:57 | 13.37088 | -24.59555 | 33017 ft | 553 kts | 22° |
| 2026-05-06 00:57 | 13.44135 | -24.56196 | 33018 ft | 554 kts | 22° |
| 2026-05-06 00:58 | 13.51206 | -24.52824 | 33017 ft | 556 kts | 22° |
| 2026-05-06 00:58 | 13.58291 | -24.49442 | 33022 ft | 556 kts | 21° |
| 2026-05-06 00:59 | 13.65335 | -24.46077 | 33021 ft | 555 kts | 22° |
| 2026-05-06 00:59 | 13.72403 | -24.42692 | 33023 ft | 555 kts | 21° |
| 2026-05-06 01:00 | 13.79465 | -24.39282 | 33024 ft | 556 kts | 21° |
| 2026-05-06 01:00 | 13.86507 | -24.35881 | 33025 ft | 556 kts | 22° |
| 2026-05-06 01:01 | 13.93610 | -24.32447 | 33016 ft | 559 kts | 22° |
| 2026-05-06 01:01 | 14.00645 | -24.29045 | 33015 ft | 557 kts | 22° |
| 2026-05-06 01:02 | 14.07752 | -24.25606 | 33015 ft | 558 kts | 22° |
| 2026-05-06 01:02 | 14.14840 | -24.22174 | 33003 ft | 559 kts | 22° |
| 2026-05-06 01:03 | 14.21958 | -24.18725 | 32995 ft | 560 kts | 22° |
| 2026-05-06 01:03 | 14.29024 | -24.15298 | 32995 ft | 559 kts | 22° |
| 2026-05-06 01:04 | 14.36095 | -24.11867 | 32997 ft | 558 kts | 21° |
| 2026-05-06 01:04 | 14.43198 | -24.08418 | 32995 ft | 558 kts | 21° |
| 2026-05-06 01:05 | 14.50276 | -24.04979 | 32995 ft | 559 kts | 21° |
| 2026-05-06 01:05 | 14.57404 | -24.01513 | 32990 ft | 558 kts | 21° |
| 2026-05-06 01:06 | 14.64508 | -23.98057 | 32992 ft | 558 kts | 21° |
| 2026-05-06 01:06 | 14.71568 | -23.94619 | 32994 ft | 561 kts | 21° |
| 2026-05-06 01:07 | 14.78692 | -23.91147 | 32995 ft | 561 kts | 21° |
| 2026-05-06 01:07 | 14.85855 | -23.87654 | 32996 ft | 560 kts | 21° |
| 2026-05-06 01:08 | 14.92973 | -23.84181 | 33001 ft | 564 kts | 21° |
| 2026-05-06 01:08 | 15.00068 | -23.80715 | 33002 ft | 560 kts | 21° |
| 2026-05-06 01:09 | 15.07217 | -23.77222 | 33010 ft | 563 kts | 21° |
| 2026-05-06 01:09 | 15.14328 | -23.73743 | 33004 ft | 559 kts | 21° |
| 2026-05-06 01:10 | 15.21463 | -23.70252 | 33007 ft | 561 kts | 21° |
| 2026-05-06 01:10 | 15.28551 | -23.66780 | 33011 ft | 562 kts | 21° |
| 2026-05-06 01:11 | 15.35706 | -23.63272 | 33006 ft | 563 kts | 21° |
| 2026-05-06 01:11 | 15.42792 | -23.59796 | 33009 ft | 563 kts | 21° |
| 2026-05-06 01:12 | 15.49962 | -23.56276 | 33003 ft | 564 kts | 21° |
| 2026-05-06 01:12 | 15.57141 | -23.52750 | 33011 ft | 566 kts | 21° |
| 2026-05-06 01:13 | 15.64285 | -23.49236 | 33014 ft | 565 kts | 21° |
| 2026-05-06 01:13 | 15.71463 | -23.45704 | 33010 ft | 566 kts | 21° |
| 2026-05-06 01:14 | 15.82264 | -23.40383 | 33016 ft | 565 kts | 21° |
| 2026-05-06 01:14 | 15.89387 | -23.36871 | 33011 ft | 565 kts | 21° |
| 2026-05-06 01:15 | 15.96559 | -23.33333 | 33004 ft | 566 kts | 21° |
| 2026-05-06 01:15 | 16.03741 | -23.29785 | 32999 ft | 565 kts | 21° |
| 2026-05-06 01:16 | 16.10841 | -23.26276 | 32998 ft | 563 kts | 21° |
| 2026-05-06 01:16 | 16.18057 | -23.22708 | 32991 ft | 566 kts | 21° |
| 2026-05-06 01:17 | 16.25183 | -23.19180 | 32990 ft | 567 kts | 20° |
| 2026-05-06 01:17 | 16.32403 | -23.15603 | 32992 ft | 569 kts | 20° |
| 2026-05-06 01:18 | 16.39609 | -23.12030 | 32999 ft | 569 kts | 20° |
| 2026-05-06 01:18 | 16.46835 | -23.08444 | 33006 ft | 570 kts | 20° |
| 2026-05-06 01:19 | 16.54042 | -23.04865 | 33010 ft | 569 kts | 20° |
| 2026-05-06 01:19 | 16.61195 | -23.01308 | 33011 ft | 568 kts | 20° |
| 2026-05-06 01:20 | 16.68395 | -22.97726 | 33018 ft | 567 kts | 20° |
| 2026-05-06 01:20 | 16.75540 | -22.93978 | 33029 ft | 570 kts | 25° |
| 2026-05-06 01:21 | 16.82467 | -22.89788 | 33024 ft | 573 kts | 25° |
| 2026-05-06 01:21 | 16.89381 | -22.85588 | 33024 ft | 572 kts | 25° |
| 2026-05-06 01:22 | 16.96298 | -22.81384 | 33023 ft | 571 kts | 25° |
| 2026-05-06 01:22 | 17.03227 | -22.77172 | 33021 ft | 575 kts | 25° |
| 2026-05-06 01:23 | 17.10214 | -22.72921 | 33018 ft | 572 kts | 25° |
| 2026-05-06 01:23 | 17.17126 | -22.68714 | 33011 ft | 574 kts | 25° |
| 2026-05-06 01:24 | 17.24068 | -22.64485 | 33011 ft | 575 kts | 25° |
| 2026-05-06 01:24 | 17.31049 | -22.60226 | 33009 ft | 573 kts | 24° |
| 2026-05-06 01:25 | 17.37991 | -22.55991 | 33013 ft | 573 kts | 25° |
| 2026-05-06 01:25 | 17.44879 | -22.51784 | 33014 ft | 574 kts | 24° |
| 2026-05-06 01:26 | 17.51829 | -22.47535 | 33011 ft | 573 kts | 25° |
| 2026-05-06 01:26 | 17.58796 | -22.43271 | 33010 ft | 570 kts | 24° |
| 2026-05-06 01:27 | 17.65697 | -22.39046 | 33013 ft | 572 kts | 25° |
| 2026-05-06 01:27 | 17.72620 | -22.34802 | 33005 ft | 570 kts | 25° |
| 2026-05-06 01:28 | 17.79567 | -22.30542 | 32986 ft | 576 kts | 25° |
| 2026-05-06 01:28 | 17.86503 | -22.26281 | 32991 ft | 572 kts | 25° |
| 2026-05-06 01:29 | 17.93416 | -22.22033 | 32998 ft | 577 kts | 25° |
| 2026-05-06 01:29 | 18.00402 | -22.17734 | 32998 ft | 572 kts | 25° |
| 2026-05-06 01:30 | 18.07335 | -22.13465 | 32999 ft | 574 kts | 25° |
| 2026-05-06 01:30 | 18.14308 | -22.09167 | 32998 ft | 571 kts | 25° |
| 2026-05-06 01:31 | 18.21201 | -22.04914 | 32989 ft | 570 kts | 25° |
| 2026-05-06 01:31 | 18.28107 | -22.00650 | 32997 ft | 568 kts | 25° |
| 2026-05-06 01:32 | 18.34977 | -21.96404 | 32990 ft | 568 kts | 25° |
| 2026-05-06 01:32 | 18.41834 | -21.92161 | 32994 ft | 567 kts | 25° |
| 2026-05-06 01:33 | 18.48673 | -21.87927 | 32980 ft | 568 kts | 25° |
| 2026-05-06 01:33 | 18.55551 | -21.83665 | 32985 ft | 568 kts | 25° |
| 2026-05-06 01:34 | 18.62437 | -21.79392 | 33009 ft | 570 kts | 25° |
| 2026-05-06 01:34 | 18.69268 | -21.75149 | 33013 ft | 562 kts | 25° |
| 2026-05-06 01:35 | 18.76085 | -21.70912 | 32992 ft | 562 kts | 25° |
| 2026-05-06 01:35 | 18.82907 | -21.66670 | 32998 ft | 567 kts | 25° |
| 2026-05-06 01:36 | 18.89734 | -21.62417 | 32996 ft | 561 kts | 25° |
| 2026-05-06 01:36 | 18.96546 | -21.58171 | 33020 ft | 565 kts | 25° |
| 2026-05-06 01:37 | 19.03324 | -21.53942 | 32996 ft | 563 kts | 26° |
| 2026-05-06 01:37 | 19.10060 | -21.49734 | 33008 ft | 560 kts | 25° |
| 2026-05-06 01:38 | 19.16822 | -21.45507 | 33000 ft | 561 kts | 25° |
| 2026-05-06 01:38 | 19.23576 | -21.41281 | 33003 ft | 560 kts | 25° |
| 2026-05-06 01:39 | 19.30366 | -21.37030 | 33131 ft | 564 kts | 26° |
| 2026-05-06 01:39 | 19.33780 | -21.34888 | 33356 ft | 559 kts | 26° |
| 2026-05-06 01:39 | 19.37150 | -21.32775 | 33563 ft | 561 kts | 26° |
| 2026-05-06 01:40 | 19.40552 | -21.30641 | 33733 ft | 561 kts | 26° |
| 2026-05-06 01:40 | 19.43916 | -21.28529 | 33917 ft | 561 kts | 25° |
| 2026-05-06 01:40 | 19.47323 | -21.26390 | 34113 ft | 563 kts | 25° |
| 2026-05-06 01:40 | 19.50708 | -21.24262 | 34295 ft | 561 kts | 26° |
| 2026-05-06 01:41 | 19.54121 | -21.22117 | 34499 ft | 564 kts | 25° |
| 2026-05-06 01:41 | 19.57511 | -21.19986 | 34699 ft | 564 kts | 25° |
| 2026-05-06 01:41 | 19.60904 | -21.17849 | 34882 ft | 560 kts | 25° |
| 2026-05-06 01:41 | 19.64260 | -21.15736 | 34992 ft | 563 kts | 25° |
| 2026-05-06 01:42 | 19.71054 | -21.11455 | 34987 ft | 559 kts | 25° |
| 2026-05-06 01:42 | 19.77867 | -21.07160 | 35000 ft | 565 kts | 25° |
| 2026-05-06 01:43 | 19.84641 | -21.02883 | 34997 ft | 562 kts | 25° |
| 2026-05-06 01:43 | 19.91392 | -20.98615 | 35007 ft | 560 kts | 25° |
| 2026-05-06 01:44 | 19.98205 | -20.94308 | 34998 ft | 566 kts | 24° |
| 2026-05-06 01:44 | 20.04952 | -20.90035 | 35001 ft | 563 kts | 25° |
| 2026-05-06 01:45 | 20.11735 | -20.85735 | 34997 ft | 561 kts | 25° |
| 2026-05-06 01:45 | 20.18508 | -20.81437 | 34992 ft | 561 kts | 25° |
| 2026-05-06 01:46 | 20.25263 | -20.77147 | 34989 ft | 563 kts | 25° |
| 2026-05-06 01:46 | 20.32008 | -20.72857 | 34990 ft | 557 kts | 25° |
| 2026-05-06 01:47 | 20.38744 | -20.68569 | 34996 ft | 560 kts | 25° |
| 2026-05-06 01:47 | 20.45429 | -20.64299 | 34997 ft | 560 kts | 25° |
| 2026-05-06 01:48 | 20.52182 | -20.59981 | 34983 ft | 558 kts | 26° |
| 2026-05-06 01:48 | 20.58885 | -20.55691 | 34993 ft | 556 kts | 25° |
| 2026-05-06 01:49 | 20.65584 | -20.51400 | 34988 ft | 558 kts | 26° |
| 2026-05-06 01:50 | 20.79323 | -20.42583 | 34987 ft | 555 kts | 25° |
| 2026-05-06 01:50 | 20.86040 | -20.38268 | 35007 ft | 559 kts | 25° |
| 2026-05-06 01:51 | 20.92694 | -20.33986 | 34976 ft | 556 kts | 26° |
| 2026-05-06 01:51 | 20.99395 | -20.29671 | 34982 ft | 560 kts | 26° |
| 2026-05-06 01:52 | 21.06089 | -20.25354 | 34973 ft | 554 kts | 26° |
| 2026-05-06 01:52 | 21.12757 | -20.21051 | 34972 ft | 557 kts | 26° |
| 2026-05-06 01:53 | 21.19418 | -20.16747 | 34974 ft | 556 kts | 25° |
| 2026-05-06 01:53 | 21.26083 | -20.12437 | 34971 ft | 555 kts | 26° |
| 2026-05-06 01:54 | 21.32774 | -20.08105 | 34985 ft | 558 kts | 26° |
| 2026-05-06 01:54 | 21.39449 | -20.03778 | 34983 ft | 557 kts | 26° |
| 2026-05-06 01:55 | 21.46150 | -19.99430 | 34969 ft | 554 kts | 26° |
| 2026-05-06 01:55 | 21.52783 | -19.95121 | 34980 ft | 554 kts | 26° |
| 2026-05-06 01:56 | 21.59445 | -19.90790 | 34970 ft | 556 kts | 26° |
| 2026-05-06 01:56 | 21.66106 | -19.86452 | 34981 ft | 553 kts | 26° |
| 2026-05-06 01:57 | 21.72741 | -19.82130 | 34983 ft | 555 kts | 26° |
| 2026-05-06 01:57 | 21.79348 | -19.77818 | 34979 ft | 553 kts | 26° |
| 2026-05-06 01:58 | 21.86008 | -19.73469 | 34975 ft | 553 kts | 26° |
| 2026-05-06 01:58 | 21.92645 | -19.69130 | 34988 ft | 555 kts | 26° |
| 2026-05-06 01:59 | 21.99265 | -19.64796 | 34980 ft | 553 kts | 26° |
| 2026-05-06 01:59 | 22.05908 | -19.60444 | 34985 ft | 557 kts | 26° |
| 2026-05-06 02:00 | 22.12543 | -19.56089 | 34977 ft | 552 kts | 26° |
| 2026-05-06 02:00 | 22.19199 | -19.51719 | 34976 ft | 555 kts | 26° |
| 2026-05-06 02:01 | 22.25793 | -19.47384 | 34976 ft | 555 kts | 26° |
| 2026-05-06 02:01 | 22.32479 | -19.42983 | 34978 ft | 553 kts | 26° |
| 2026-05-06 02:02 | 22.39084 | -19.38631 | 34981 ft | 556 kts | 26° |
| 2026-05-06 02:02 | 22.45735 | -19.34242 | 34967 ft | 555 kts | 27° |
| 2026-05-06 02:03 | 22.52330 | -19.29886 | 34966 ft | 553 kts | 27° |
| 2026-05-06 02:03 | 22.59015 | -19.25468 | 34967 ft | 558 kts | 27° |
| 2026-05-06 02:04 | 22.65682 | -19.21053 | 34968 ft | 554 kts | 27° |
| 2026-05-06 02:04 | 22.72311 | -19.16660 | 34967 ft | 557 kts | 27° |
| 2026-05-06 02:05 | 22.78953 | -19.12253 | 34971 ft | 556 kts | 27° |
| 2026-05-06 02:05 | 22.85602 | -19.07837 | 34973 ft | 557 kts | 27° |
| 2026-05-06 02:06 | 22.92270 | -19.03401 | 34963 ft | 555 kts | 27° |
| 2026-05-06 02:06 | 22.98951 | -18.98954 | 34963 ft | 558 kts | 27° |
| 2026-05-06 02:07 | 23.05587 | -18.94529 | 34958 ft | 555 kts | 27° |
| 2026-05-06 02:07 | 23.12240 | -18.90090 | 34954 ft | 555 kts | 27° |
| 2026-05-06 02:08 | 23.18870 | -18.85660 | 34953 ft | 558 kts | 27° |
| 2026-05-06 02:08 | 23.25534 | -18.81202 | 34960 ft | 560 kts | 27° |
| 2026-05-06 02:09 | 23.32198 | -18.76738 | 34970 ft | 558 kts | 27° |
| 2026-05-06 02:09 | 23.38854 | -18.72275 | 34983 ft | 558 kts | 27° |
| 2026-05-06 02:10 | 23.45495 | -18.67817 | 34977 ft | 559 kts | 27° |
| 2026-05-06 02:10 | 23.52175 | -18.63326 | 34984 ft | 559 kts | 27° |
| 2026-05-06 02:11 | 23.58835 | -18.58845 | 34987 ft | 558 kts | 27° |
| 2026-05-06 02:11 | 23.65480 | -18.54367 | 34989 ft | 559 kts | 27° |
| 2026-05-06 02:12 | 23.72132 | -18.49880 | 34990 ft | 558 kts | 27° |
| 2026-05-06 02:12 | 23.78786 | -18.45386 | 34988 ft | 560 kts | 27° |
| 2026-05-06 02:13 | 23.85461 | -18.40872 | 34988 ft | 560 kts | 27° |
| 2026-05-06 02:13 | 23.92125 | -18.36360 | 34989 ft | 561 kts | 27° |
| 2026-05-06 02:14 | 23.98856 | -18.31796 | 34973 ft | 560 kts | 28° |
| 2026-05-06 02:14 | 24.05548 | -18.27255 | 34974 ft | 562 kts | 27° |
| 2026-05-06 02:15 | 24.12220 | -18.22719 | 34964 ft | 560 kts | 27° |
| 2026-05-06 02:15 | 24.18905 | -18.18171 | 34966 ft | 562 kts | 27° |
| 2026-05-06 02:16 | 24.25571 | -18.13630 | 34967 ft | 563 kts | 27° |
| 2026-05-06 02:16 | 24.32276 | -18.09055 | 34968 ft | 562 kts | 27° |
| 2026-05-06 02:17 | 24.38969 | -18.04484 | 34972 ft | 562 kts | 27° |
| 2026-05-06 02:17 | 24.45626 | -17.99932 | 34972 ft | 563 kts | 27° |
| 2026-05-06 02:18 | 24.52303 | -17.95360 | 34975 ft | 563 kts | 27° |
| 2026-05-06 02:18 | 24.59017 | -17.90757 | 34974 ft | 563 kts | 27° |
| 2026-05-06 02:19 | 24.65723 | -17.86153 | 34971 ft | 565 kts | 27° |
| 2026-05-06 02:19 | 24.72429 | -17.81544 | 34974 ft | 564 kts | 27° |
| 2026-05-06 02:20 | 24.82475 | -17.74627 | 34977 ft | 564 kts | 27° |
| 2026-05-06 02:21 | 24.89212 | -17.69981 | 34974 ft | 564 kts | 28° |
| 2026-05-06 02:21 | 24.95901 | -17.65362 | 34976 ft | 563 kts | 27° |
| 2026-05-06 02:22 | 25.02576 | -17.60747 | 34978 ft | 564 kts | 27° |
| 2026-05-06 02:22 | 25.09266 | -17.56116 | 34975 ft | 565 kts | 27° |
| 2026-05-06 02:23 | 25.16001 | -17.51447 | 34968 ft | 566 kts | 27° |
| 2026-05-06 02:23 | 25.22700 | -17.46797 | 34969 ft | 565 kts | 27° |
| 2026-05-06 02:24 | 25.29401 | -17.42139 | 34971 ft | 566 kts | 27° |
| 2026-05-06 02:24 | 25.36143 | -17.37448 | 34972 ft | 567 kts | 27° |
| 2026-05-06 02:25 | 25.42829 | -17.32788 | 34956 ft | 568 kts | 28° |
| 2026-05-06 02:25 | 25.49601 | -17.28063 | 34958 ft | 569 kts | 28° |
| 2026-05-06 02:26 | 25.56344 | -17.23350 | 34957 ft | 567 kts | 27° |
| 2026-05-06 02:26 | 25.63072 | -17.18643 | 34954 ft | 570 kts | 28° |
| 2026-05-06 02:27 | 25.69801 | -17.13928 | 34950 ft | 567 kts | 28° |
| 2026-05-06 02:27 | 25.76563 | -17.09184 | 34953 ft | 569 kts | 28° |
| 2026-05-06 02:28 | 25.83321 | -17.04436 | 34958 ft | 571 kts | 28° |
| 2026-05-06 02:28 | 25.90053 | -16.99701 | 34958 ft | 571 kts | 28° |
| 2026-05-06 02:29 | 25.96840 | -16.94919 | 34960 ft | 573 kts | 28° |
| 2026-05-06 02:29 | 26.03588 | -16.90158 | 34970 ft | 571 kts | 28° |
| 2026-05-06 02:30 | 26.10327 | -16.85397 | 34969 ft | 570 kts | 28° |
| 2026-05-06 02:30 | 26.17091 | -16.80612 | 34954 ft | 570 kts | 28° |
| 2026-05-06 02:31 | 26.23796 | -16.75863 | 34951 ft | 571 kts | 28° |
| 2026-05-06 02:31 | 26.30538 | -16.71079 | 34959 ft | 570 kts | 28° |
| 2026-05-06 02:32 | 26.37293 | -16.66282 | 34958 ft | 570 kts | 28° |
| 2026-05-06 02:32 | 26.44034 | -16.61485 | 34961 ft | 567 kts | 28° |
| 2026-05-06 02:33 | 26.50784 | -16.56677 | 34965 ft | 572 kts | 28° |
| 2026-05-06 02:33 | 26.53056 | -16.55057 | 34965 ft | 571 kts | 28° |
| 2026-05-06 02:34 | 26.64243 | -16.47068 | 34967 ft | 570 kts | 28° |
| 2026-05-06 02:34 | 26.70964 | -16.42261 | 34966 ft | 572 kts | 28° |
| 2026-05-06 02:35 | 26.77724 | -16.37418 | 34970 ft | 571 kts | 27° |
| 2026-05-06 02:35 | 26.84448 | -16.32594 | 34962 ft | 574 kts | 28° |
| 2026-05-06 02:36 | 26.91206 | -16.27736 | 34965 ft | 568 kts | 28° |
| 2026-05-06 02:36 | 26.97915 | -16.22911 | 34966 ft | 573 kts | 28° |
| 2026-05-06 02:37 | 27.04707 | -16.18016 | 34961 ft | 570 kts | 28° |
| 2026-05-06 02:37 | 27.11438 | -16.13160 | 34955 ft | 576 kts | 28° |
| 2026-05-06 02:38 | 27.18186 | -16.08282 | 34956 ft | 571 kts | 28° |
| 2026-05-06 02:38 | 27.24940 | -16.03394 | 34967 ft | 573 kts | 28° |
| 2026-05-06 02:39 | 27.31629 | -15.98545 | 34965 ft | 571 kts | 28° |
| 2026-05-06 02:39 | 27.38369 | -15.93654 | 34967 ft | 572 kts | 28° |
| 2026-05-06 02:40 | 27.45141 | -15.88731 | 34970 ft | 572 kts | 28° |
| 2026-05-06 02:40 | 27.51862 | -15.83838 | 34972 ft | 572 kts | 28° |
| 2026-05-06 02:41 | 27.58598 | -15.78927 | 34974 ft | 572 kts | 28° |
| 2026-05-06 02:41 | 27.65319 | -15.74021 | 34977 ft | 574 kts | 28° |
| 2026-05-06 02:42 | 27.72042 | -15.69104 | 34978 ft | 572 kts | 28° |
| 2026-05-06 02:42 | 27.78769 | -15.64179 | 34983 ft | 574 kts | 28° |
| 2026-05-06 02:43 | 27.85512 | -15.59231 | 34994 ft | 571 kts | 28° |
| 2026-05-06 02:43 | 27.92225 | -15.54302 | 35009 ft | 574 kts | 28° |
| 2026-05-06 02:44 | 27.98966 | -15.49343 | 35019 ft | 575 kts | 28° |
| 2026-05-06 02:44 | 28.05739 | -15.44353 | 35023 ft | 576 kts | 28° |
| 2026-05-06 02:45 | 28.12487 | -15.39360 | 34995 ft | 574 kts | 28° |
| 2026-05-06 02:45 | 28.19223 | -15.34355 | 34985 ft | 576 kts | 29° |
| 2026-05-06 02:46 | 28.25916 | -15.29373 | 34977 ft | 575 kts | 29° |
| 2026-05-06 02:46 | 28.32699 | -15.24320 | 34969 ft | 574 kts | 29° |
| 2026-05-06 02:47 | 28.39399 | -15.19319 | 34976 ft | 575 kts | 29° |
| 2026-05-06 02:47 | 28.46138 | -15.14281 | 34977 ft | 575 kts | 29° |
| 2026-05-06 02:48 | 28.52870 | -15.09242 | 34980 ft | 576 kts | 29° |
| 2026-05-06 02:48 | 28.59608 | -15.04188 | 34981 ft | 575 kts | 29° |
| 2026-05-06 02:49 | 28.66338 | -14.99136 | 34985 ft | 577 kts | 29° |
| 2026-05-06 02:49 | 28.73041 | -14.94092 | 34983 ft | 575 kts | 29° |
| 2026-05-06 02:50 | 28.79816 | -14.88990 | 34985 ft | 576 kts | 29° |
| 2026-05-06 02:50 | 28.86534 | -14.83920 | 34992 ft | 577 kts | 30° |
| 2026-05-06 02:51 | 28.93251 | -14.78844 | 34994 ft | 576 kts | 30° |
| 2026-05-06 02:51 | 28.99994 | -14.73739 | 34998 ft | 575 kts | 30° |
| 2026-05-06 02:52 | 29.06745 | -14.68621 | 35008 ft | 576 kts | 29° |
| 2026-05-06 02:52 | 29.13429 | -14.63544 | 34992 ft | 570 kts | 29° |
| 2026-05-06 02:53 | 29.20103 | -14.58469 | 34988 ft | 573 kts | 29° |
| 2026-05-06 02:53 | 29.26772 | -14.53388 | 34991 ft | 568 kts | 30° |
| 2026-05-06 02:54 | 29.33421 | -14.48315 | 34996 ft | 573 kts | 30° |
| 2026-05-06 02:54 | 29.40068 | -14.43234 | 34994 ft | 565 kts | 29° |
| 2026-05-06 02:55 | 29.46704 | -14.38157 | 34995 ft | 572 kts | 29° |
| 2026-05-06 02:55 | 29.53341 | -14.33067 | 34979 ft | 567 kts | 30° |
| 2026-05-06 02:56 | 29.59940 | -14.28001 | 34984 ft | 568 kts | 30° |
| 2026-05-06 02:56 | 29.66533 | -14.22929 | 34985 ft | 567 kts | 30° |
| 2026-05-06 02:57 | 29.73180 | -14.17809 | 34984 ft | 566 kts | 30° |
| 2026-05-06 02:57 | 29.79773 | -14.12721 | 34990 ft | 566 kts | 30° |
| 2026-05-06 02:58 | 29.86400 | -14.07601 | 34990 ft | 567 kts | 30° |
| 2026-05-06 02:58 | 29.93005 | -14.02488 | 34994 ft | 567 kts | 30° |
| 2026-05-06 02:59 | 29.99634 | -13.97349 | 34993 ft | 568 kts | 30° |
| 2026-05-06 02:59 | 30.06177 | -13.92267 | 35010 ft | 568 kts | 30° |
| 2026-05-06 03:00 | 30.12812 | -13.87106 | 34987 ft | 566 kts | 30° |
| 2026-05-06 03:00 | 30.19405 | -13.81968 | 34882 ft | 564 kts | 30° |
| 2026-05-06 03:00 | 30.22629 | -13.79452 | 34984 ft | 559 kts | 30° |
| 2026-05-06 03:01 | 30.25899 | -13.76900 | 35154 ft | 563 kts | 30° |
| 2026-05-06 03:01 | 30.29155 | -13.74356 | 34880 ft | 564 kts | 30° |
| 2026-05-06 03:01 | 30.32376 | -13.71835 | 34979 ft | 555 kts | 30° |
| 2026-05-06 03:02 | 30.38898 | -13.66731 | 34998 ft | 560 kts | 30° |
| 2026-05-06 03:02 | 30.45357 | -13.61665 | 34999 ft | 554 kts | 30° |
| 2026-05-06 03:02 | 30.48589 | -13.59128 | 35154 ft | 559 kts | 30° |
| 2026-05-06 03:03 | 30.51828 | -13.56581 | 35007 ft | 559 kts | 30° |
| 2026-05-06 03:03 | 30.58193 | -13.51520 | 35012 ft | 552 kts | 31° |
| 2026-05-06 03:04 | 30.64590 | -13.46424 | 35016 ft | 555 kts | 31° |
| 2026-05-06 03:04 | 30.70969 | -13.41334 | 35023 ft | 550 kts | 30° |
| 2026-05-06 03:05 | 30.77251 | -13.36314 | 35021 ft | 549 kts | 31° |
| 2026-05-06 03:05 | 30.83630 | -13.31211 | 35012 ft | 552 kts | 31° |
| 2026-05-06 03:06 | 30.89944 | -13.26149 | 35009 ft | 548 kts | 31° |
| 2026-05-06 03:06 | 30.96273 | -13.21100 | 35015 ft | 547 kts | 31° |
| 2026-05-06 03:07 | 31.02587 | -13.16085 | 35021 ft | 547 kts | 31° |
| 2026-05-06 03:07 | 31.08858 | -13.11095 | 35023 ft | 544 kts | 31° |
| 2026-05-06 03:08 | 31.15089 | -13.06127 | 35008 ft | 540 kts | 31° |
| 2026-05-06 03:08 | 31.21347 | -13.01130 | 35012 ft | 541 kts | 31° |
| 2026-05-06 03:09 | 31.27582 | -12.96143 | 35007 ft | 539 kts | 31° |
| 2026-05-06 03:09 | 31.33739 | -12.91209 | 35000 ft | 541 kts | 31° |
| 2026-05-06 03:10 | 31.40011 | -12.86175 | 34999 ft | 537 kts | 31° |
| 2026-05-06 03:10 | 31.46170 | -12.81223 | 34993 ft | 538 kts | 31° |
| 2026-05-06 03:11 | 31.52341 | -12.76254 | 35012 ft | 535 kts | 31° |
| 2026-05-06 03:11 | 31.58461 | -12.71317 | 35007 ft | 537 kts | 31° |
| 2026-05-06 03:12 | 31.64669 | -12.66303 | 35008 ft | 533 kts | 31° |
| 2026-05-06 03:12 | 31.70756 | -12.61377 | 35006 ft | 536 kts | 31° |
| 2026-05-06 03:13 | 31.76882 | -12.56411 | 35009 ft | 531 kts | 31° |
| 2026-05-06 03:13 | 31.82996 | -12.51448 | 35011 ft | 532 kts | 31° |
| 2026-05-06 03:14 | 31.89090 | -12.46492 | 35023 ft | 529 kts | 32° |
| 2026-05-06 03:14 | 31.95150 | -12.41556 | 35014 ft | 528 kts | 32° |
| 2026-05-06 03:15 | 32.01216 | -12.36616 | 35014 ft | 527 kts | 31° |
| 2026-05-06 03:15 | 32.07265 | -12.31694 | 35006 ft | 526 kts | 32° |
| 2026-05-06 03:16 | 32.13303 | -12.26772 | 34993 ft | 527 kts | 32° |
| 2026-05-06 03:16 | 32.19368 | -12.21820 | 34997 ft | 529 kts | 32° |
| 2026-05-06 03:17 | 32.25407 | -12.16880 | 35000 ft | 527 kts | 32° |
| 2026-05-06 03:17 | 32.31462 | -12.11920 | 35004 ft | 530 kts | 32° |
| 2026-05-06 03:18 | 32.37546 | -12.06926 | 35001 ft | 528 kts | 32° |
| 2026-05-06 03:18 | 32.43580 | -12.01966 | 35001 ft | 528 kts | 32° |
| 2026-05-06 03:19 | 32.49324 | -11.97236 | 35005 ft | 529 kts | 32° |
| 2026-05-06 03:19 | 32.55379 | -11.92242 | 35012 ft | 528 kts | 32° |
| 2026-05-06 03:19 | 32.58442 | -11.89714 | 35147 ft | 532 kts | 32° |
| 2026-05-06 03:20 | 32.64522 | -11.84686 | 35942 ft | 530 kts | 32° |
| 2026-05-06 03:20 | 32.70615 | -11.79640 | 36012 ft | 528 kts | 32° |
| 2026-05-06 03:21 | 32.76671 | -11.74615 | 36023 ft | 526 kts | 32° |
| 2026-05-06 03:21 | 32.82760 | -11.69555 | 36027 ft | 526 kts | 32° |
| 2026-05-06 03:22 | 32.88756 | -11.64563 | 36039 ft | 524 kts | 32° |
| 2026-05-06 03:22 | 32.94742 | -11.59572 | 36029 ft | 525 kts | 32° |
| 2026-05-06 03:23 | 33.00755 | -11.54549 | 36030 ft | 522 kts | 32° |
| 2026-05-06 03:23 | 33.06745 | -11.49537 | 36033 ft | 523 kts | 32° |
| 2026-05-06 03:24 | 33.12730 | -11.44521 | 36026 ft | 522 kts | 32° |
| 2026-05-06 03:24 | 33.18710 | -11.39500 | 36027 ft | 523 kts | 32° |
| 2026-05-06 03:25 | 33.24665 | -11.34454 | 36026 ft | 523 kts | 33° |
| 2026-05-06 03:25 | 33.30633 | -11.29387 | 36023 ft | 523 kts | 33° |
| 2026-05-06 03:26 | 33.36432 | -11.24457 | 36023 ft | 524 kts | 33° |
| 2026-05-06 03:26 | 33.42432 | -11.19347 | 36018 ft | 524 kts | 33° |
| 2026-05-06 03:27 | 33.48383 | -11.14272 | 36026 ft | 524 kts | 33° |
| 2026-05-06 03:27 | 33.54348 | -11.09175 | 36027 ft | 524 kts | 33° |
| 2026-05-06 03:28 | 33.60307 | -11.04074 | 36030 ft | 524 kts | 33° |
| 2026-05-06 03:28 | 33.66320 | -10.98919 | 36028 ft | 523 kts | 33° |
| 2026-05-06 03:29 | 33.72232 | -10.93841 | 36032 ft | 524 kts | 33° |
| 2026-05-06 03:29 | 33.78240 | -10.88673 | 36031 ft | 525 kts | 33° |
| 2026-05-06 03:30 | 33.84198 | -10.83538 | 36035 ft | 525 kts | 33° |
| 2026-05-06 03:30 | 33.90204 | -10.78353 | 36037 ft | 525 kts | 33° |
| 2026-05-06 03:31 | 33.96185 | -10.73179 | 36029 ft | 525 kts | 33° |
| 2026-05-06 03:31 | 34.02126 | -10.68032 | 36032 ft | 525 kts | 32° |
| 2026-05-06 03:32 | 34.08104 | -10.62843 | 36032 ft | 526 kts | 33° |
| 2026-05-06 03:32 | 34.14061 | -10.57664 | 36029 ft | 525 kts | 33° |
| 2026-05-06 03:33 | 34.20008 | -10.52484 | 36026 ft | 526 kts | 33° |
| 2026-05-06 03:33 | 34.25995 | -10.47260 | 36025 ft | 526 kts | 32° |
| 2026-05-06 03:34 | 34.31942 | -10.42061 | 36026 ft | 527 kts | 33° |
| 2026-05-06 03:34 | 34.37906 | -10.36838 | 36025 ft | 526 kts | 33° |
| 2026-05-06 03:35 | 34.43910 | -10.31571 | 36017 ft | 527 kts | 33° |
| 2026-05-06 03:35 | 34.49838 | -10.26361 | 36015 ft | 527 kts | 33° |
| 2026-05-06 03:36 | 34.55821 | -10.21093 | 36015 ft | 527 kts | 33° |
| 2026-05-06 03:36 | 34.61782 | -10.15835 | 36013 ft | 527 kts | 33° |
| 2026-05-06 03:37 | 34.67715 | -10.10619 | 36015 ft | 527 kts | 33° |
| 2026-05-06 03:37 | 34.73691 | -10.05364 | 36015 ft | 527 kts | 33° |
| 2026-05-06 03:38 | 34.79674 | -10.00093 | 36016 ft | 527 kts | 33° |
| 2026-05-06 03:38 | 34.85649 | -9.94819 | 36016 ft | 526 kts | 33° |
| 2026-05-06 03:39 | 34.91595 | -9.89561 | 36013 ft | 527 kts | 33° |
| 2026-05-06 03:39 | 34.97540 | -9.84293 | 36014 ft | 526 kts | 33° |
| 2026-05-06 03:40 | 35.03483 | -9.79018 | 36011 ft | 526 kts | 33° |
| 2026-05-06 03:40 | 35.09425 | -9.73734 | 36016 ft | 527 kts | 33° |
| 2026-05-06 03:41 | 35.15379 | -9.68429 | 36012 ft | 528 kts | 33° |
| 2026-05-06 03:41 | 35.21334 | -9.63113 | 36016 ft | 527 kts | 33° |
| 2026-05-06 03:42 | 35.27255 | -9.57819 | 36011 ft | 527 kts | 33° |
| 2026-05-06 03:42 | 35.33235 | -9.52460 | 36014 ft | 527 kts | 33° |
| 2026-05-06 03:43 | 35.39147 | -9.47154 | 36006 ft | 527 kts | 33° |
| 2026-05-06 03:43 | 35.45123 | -9.41780 | 36013 ft | 527 kts | 33° |
| 2026-05-06 03:44 | 35.51042 | -9.36447 | 36009 ft | 527 kts | 33° |
| 2026-05-06 03:44 | 35.57013 | -9.31057 | 36001 ft | 528 kts | 33° |
| 2026-05-06 03:45 | 35.62968 | -9.25670 | 35995 ft | 528 kts | 33° |
| 2026-05-06 03:45 | 35.68895 | -9.20300 | 36000 ft | 527 kts | 33° |
| 2026-05-06 03:46 | 35.74818 | -9.14923 | 35998 ft | 527 kts | 33° |
| 2026-05-06 03:46 | 35.80740 | -9.09537 | 35998 ft | 528 kts | 33° |
| 2026-05-06 03:47 | 35.86680 | -9.04124 | 35995 ft | 527 kts | 33° |
| 2026-05-06 03:47 | 35.92592 | -8.98726 | 35995 ft | 527 kts | 33° |
| 2026-05-06 03:48 | 35.98502 | -8.93320 | 35993 ft | 527 kts | 33° |
| 2026-05-06 03:48 | 36.04391 | -8.87920 | 35999 ft | 528 kts | 33° |
| 2026-05-06 03:49 | 36.10333 | -8.82461 | 35991 ft | 527 kts | 33° |
| 2026-05-06 03:49 | 36.16228 | -8.77035 | 35989 ft | 527 kts | 33° |
| 2026-05-06 03:50 | 36.22135 | -8.71588 | 35991 ft | 526 kts | 33° |
| 2026-05-06 03:50 | 36.28052 | -8.66121 | 35993 ft | 527 kts | 33° |
| 2026-05-06 03:51 | 36.33911 | -8.60697 | 35988 ft | 527 kts | 33° |
| 2026-05-06 03:51 | 36.39814 | -8.55223 | 35992 ft | 528 kts | 33° |
| 2026-05-06 03:52 | 36.45708 | -8.49745 | 36008 ft | 528 kts | 33° |
| 2026-05-06 03:52 | 36.51570 | -8.44286 | 36002 ft | 527 kts | 33° |
| 2026-05-06 03:53 | 36.57461 | -8.38790 | 35998 ft | 526 kts | 33° |
| 2026-05-06 03:53 | 36.63312 | -8.33321 | 35998 ft | 527 kts | 34° |
| 2026-05-06 03:54 | 36.69172 | -8.27833 | 36001 ft | 527 kts | 34° |
| 2026-05-06 03:54 | 36.75044 | -8.22323 | 35995 ft | 527 kts | 34° |
| 2026-05-06 03:55 | 36.80910 | -8.16807 | 35995 ft | 526 kts | 34° |
| 2026-05-06 03:55 | 36.86801 | -8.11256 | 35992 ft | 527 kts | 34° |
| 2026-05-06 03:56 | 36.92654 | -8.05732 | 35996 ft | 527 kts | 34° |
| 2026-05-06 03:56 | 36.98573 | -8.00220 | 35993 ft | 524 kts | 29° |
| 2026-05-06 03:57 | 37.05124 | -7.96264 | 35997 ft | 514 kts | 13° |
| 2026-05-06 03:57 | 37.12054 | -7.93903 | 35994 ft | 512 kts | 9° |
| 2026-05-06 03:58 | 37.19004 | -7.91623 | 35986 ft | 512 kts | 10° |
| 2026-05-06 03:58 | 37.25979 | -7.89319 | 35995 ft | 512 kts | 10° |
| 2026-05-06 03:59 | 37.32894 | -7.87024 | 35992 ft | 512 kts | 10° |
| 2026-05-06 03:59 | 37.39802 | -7.84724 | 35990 ft | 511 kts | 10° |
| 2026-05-06 04:00 | 37.46694 | -7.82422 | 35989 ft | 510 kts | 9° |
| 2026-05-06 04:00 | 37.53603 | -7.80109 | 35988 ft | 510 kts | 9° |
| 2026-05-06 04:01 | 37.60538 | -7.77783 | 35994 ft | 510 kts | 10° |
| 2026-05-06 04:01 | 37.67445 | -7.75462 | 35995 ft | 511 kts | 10° |
| 2026-05-06 04:02 | 37.74342 | -7.73139 | 35997 ft | 510 kts | 10° |
| 2026-05-06 04:02 | 37.81223 | -7.70817 | 36000 ft | 510 kts | 10° |
| 2026-05-06 04:03 | 37.88133 | -7.68481 | 36002 ft | 510 kts | 10° |
| 2026-05-06 04:03 | 37.95009 | -7.66151 | 36008 ft | 510 kts | 10° |
| 2026-05-06 04:04 | 38.01946 | -7.63797 | 36010 ft | 511 kts | 10° |
| 2026-05-06 04:04 | 38.08820 | -7.61458 | 36009 ft | 509 kts | 10° |
| 2026-05-06 04:05 | 38.15653 | -7.58785 | 36008 ft | 511 kts | 13° |
| 2026-05-06 04:05 | 38.22495 | -7.55978 | 36006 ft | 511 kts | 13° |
| 2026-05-06 04:06 | 38.29302 | -7.53195 | 36003 ft | 509 kts | 13° |
| 2026-05-06 04:06 | 38.36102 | -7.50421 | 36003 ft | 510 kts | 12° |
| 2026-05-06 04:07 | 38.42896 | -7.47648 | 35998 ft | 510 kts | 13° |
| 2026-05-06 04:07 | 38.49676 | -7.44878 | 35996 ft | 510 kts | 12° |
| 2026-05-06 04:08 | 38.56470 | -7.42099 | 35995 ft | 509 kts | 13° |
| 2026-05-06 04:08 | 38.63296 | -7.39302 | 35993 ft | 510 kts | 12° |
| 2026-05-06 04:09 | 38.70077 | -7.36518 | 35990 ft | 509 kts | 13° |
| 2026-05-06 04:09 | 38.76846 | -7.33734 | 35977 ft | 508 kts | 13° |
| 2026-05-06 04:10 | 38.83620 | -7.30942 | 35971 ft | 508 kts | 13° |
| 2026-05-06 04:10 | 38.90397 | -7.28144 | 35969 ft | 507 kts | 13° |
| 2026-05-06 04:11 | 38.97167 | -7.25343 | 35970 ft | 507 kts | 13° |
| 2026-05-06 04:11 | 39.03956 | -7.22530 | 35976 ft | 510 kts | 13° |
| 2026-05-06 04:12 | 39.10709 | -7.19723 | 35982 ft | 508 kts | 13° |
| 2026-05-06 04:12 | 39.17485 | -7.16903 | 35978 ft | 507 kts | 13° |
| 2026-05-06 04:13 | 39.24241 | -7.14085 | 35979 ft | 506 kts | 13° |
| 2026-05-06 04:13 | 39.30969 | -7.11274 | 35975 ft | 506 kts | 13° |
| 2026-05-06 04:14 | 39.37721 | -7.08446 | 35978 ft | 505 kts | 13° |
| 2026-05-06 04:14 | 39.44430 | -7.05630 | 35979 ft | 504 kts | 13° |
| 2026-05-06 04:15 | 39.51149 | -7.02805 | 35979 ft | 504 kts | 13° |
| 2026-05-06 04:15 | 39.57874 | -6.99972 | 35981 ft | 503 kts | 13° |
| 2026-05-06 04:16 | 39.64601 | -6.97132 | 35983 ft | 504 kts | 13° |
| 2026-05-06 04:16 | 39.71283 | -6.94305 | 35983 ft | 504 kts | 13° |
| 2026-05-06 04:17 | 39.78000 | -6.91457 | 35985 ft | 503 kts | 13° |
| 2026-05-06 04:17 | 39.84687 | -6.88616 | 35983 ft | 502 kts | 13° |
| 2026-05-06 04:18 | 39.91200 | -6.85234 | 35983 ft | 507 kts | 20° |
| 2026-05-06 04:18 | 39.97647 | -6.81355 | 35981 ft | 506 kts | 20° |
| 2026-05-06 04:19 | 40.04085 | -6.77471 | 35983 ft | 506 kts | 20° |
| 2026-05-06 04:19 | 40.10500 | -6.73595 | 35976 ft | 505 kts | 20° |
| 2026-05-06 04:20 | 40.16919 | -6.69710 | 35984 ft | 505 kts | 20° |
| 2026-05-06 04:20 | 40.23325 | -6.65824 | 35983 ft | 505 kts | 20° |
| 2026-05-06 04:21 | 40.29736 | -6.61928 | 35986 ft | 504 kts | 20° |
| 2026-05-06 04:21 | 40.36147 | -6.58023 | 35986 ft | 503 kts | 20° |
| 2026-05-06 04:22 | 40.42516 | -6.54137 | 35992 ft | 503 kts | 20° |
| 2026-05-06 04:23 | 40.52105 | -6.48269 | 35990 ft | 503 kts | 20° |
| 2026-05-06 04:23 | 40.58472 | -6.44363 | 35986 ft | 502 kts | 20° |
| 2026-05-06 04:24 | 40.64826 | -6.40457 | 35993 ft | 502 kts | 20° |
| 2026-05-06 04:24 | 40.71168 | -6.36550 | 35991 ft | 502 kts | 20° |
| 2026-05-06 04:25 | 40.77575 | -6.32594 | 35988 ft | 502 kts | 21° |
| 2026-05-06 04:25 | 40.83939 | -6.28657 | 35984 ft | 501 kts | 21° |
| 2026-05-06 04:26 | 40.90252 | -6.24743 | 35993 ft | 500 kts | 21° |
| 2026-05-06 04:26 | 40.96629 | -6.20780 | 35985 ft | 500 kts | 21° |
| 2026-05-06 04:27 | 41.02933 | -6.16855 | 35996 ft | 500 kts | 21° |
| 2026-05-06 04:27 | 41.09287 | -6.12891 | 35997 ft | 500 kts | 21° |
| 2026-05-06 04:28 | 41.15573 | -6.08959 | 35995 ft | 498 kts | 21° |
| 2026-05-06 04:28 | 41.21893 | -6.04999 | 35998 ft | 497 kts | 21° |
| 2026-05-06 04:29 | 41.28199 | -6.01038 | 35997 ft | 498 kts | 21° |
| 2026-05-06 04:29 | 41.34482 | -5.97084 | 35997 ft | 497 kts | 21° |
| 2026-05-06 04:30 | 41.40760 | -5.93124 | 35998 ft | 496 kts | 21° |
| 2026-05-06 04:30 | 41.47027 | -5.89164 | 35999 ft | 497 kts | 21° |
| 2026-05-06 04:31 | 41.53294 | -5.85194 | 36001 ft | 496 kts | 21° |
| 2026-05-06 04:31 | 41.59599 | -5.81191 | 35999 ft | 495 kts | 21° |
| 2026-05-06 04:32 | 41.65857 | -5.77211 | 35999 ft | 496 kts | 21° |
| 2026-05-06 04:32 | 41.72090 | -5.73237 | 35997 ft | 495 kts | 21° |
| 2026-05-06 04:33 | 41.78323 | -5.69254 | 35997 ft | 494 kts | 21° |
| 2026-05-06 04:33 | 41.84553 | -5.65265 | 35999 ft | 494 kts | 21° |
| 2026-05-06 04:34 | 41.90766 | -5.61278 | 35992 ft | 493 kts | 21° |
| 2026-05-06 04:34 | 41.96970 | -5.57289 | 35988 ft | 493 kts | 21° |
| 2026-05-06 04:35 | 42.03200 | -5.53273 | 35999 ft | 494 kts | 21° |
| 2026-05-06 04:35 | 42.09421 | -5.49255 | 35997 ft | 493 kts | 21° |
| 2026-05-06 04:36 | 42.15604 | -5.45253 | 36008 ft | 494 kts | 21° |
| 2026-05-06 04:36 | 42.21800 | -5.41233 | 36007 ft | 493 kts | 21° |
| 2026-05-06 04:37 | 42.28013 | -5.37194 | 36009 ft | 493 kts | 21° |
| 2026-05-06 04:37 | 42.34207 | -5.33158 | 36003 ft | 494 kts | 22° |
| 2026-05-06 04:38 | 42.40439 | -5.29089 | 35996 ft | 493 kts | 22° |
| 2026-05-06 04:38 | 42.46640 | -5.25030 | 35998 ft | 492 kts | 22° |
| 2026-05-06 04:39 | 42.52818 | -5.20978 | 35994 ft | 493 kts | 22° |
| 2026-05-06 04:39 | 42.58978 | -5.16929 | 35999 ft | 494 kts | 22° |
| 2026-05-06 04:40 | 42.65234 | -5.12807 | 36004 ft | 493 kts | 22° |
| 2026-05-06 04:40 | 42.71425 | -5.08719 | 36000 ft | 494 kts | 22° |
| 2026-05-06 04:41 | 42.77668 | -5.04588 | 36002 ft | 493 kts | 22° |
| 2026-05-06 04:41 | 42.83850 | -5.00487 | 36002 ft | 492 kts | 22° |
| 2026-05-06 04:42 | 42.90026 | -4.96382 | 36003 ft | 493 kts | 22° |
| 2026-05-06 04:42 | 42.96239 | -4.92242 | 36008 ft | 493 kts | 22° |
| 2026-05-06 04:43 | 43.02430 | -4.88108 | 35990 ft | 493 kts | 22° |
| 2026-05-06 04:43 | 43.08586 | -4.83988 | 35989 ft | 492 kts | 22° |
| 2026-05-06 04:43 | 43.11700 | -4.81900 | 36260 ft | 492 kts | 22° |
| 2026-05-06 04:44 | 43.14782 | -4.79832 | 36050 ft | 490 kts | 22° |
| 2026-05-06 04:44 | 43.20844 | -4.75755 | 35995 ft | 486 kts | 23° |
| 2026-05-06 04:45 | 43.26973 | -4.71627 | 35999 ft | 487 kts | 23° |
| 2026-05-06 04:45 | 43.33057 | -4.67518 | 36003 ft | 487 kts | 23° |
| 2026-05-06 04:46 | 43.39167 | -4.63383 | 36018 ft | 486 kts | 23° |
| 2026-05-06 04:46 | 43.45217 | -4.59279 | 36015 ft | 486 kts | 23° |
| 2026-05-06 04:47 | 43.51337 | -4.55118 | 36019 ft | 485 kts | 23° |
| 2026-05-06 04:47 | 43.57395 | -4.50990 | 36012 ft | 485 kts | 23° |
| 2026-05-06 04:48 | 43.63428 | -4.46870 | 36008 ft | 485 kts | 23° |
| 2026-05-06 04:48 | 43.69545 | -4.42683 | 36006 ft | 485 kts | 24° |
| 2026-05-06 04:49 | 43.75622 | -4.38514 | 36009 ft | 486 kts | 24° |
| 2026-05-06 04:49 | 43.81649 | -4.34369 | 35995 ft | 485 kts | 24° |
| 2026-05-06 04:50 | 43.87713 | -4.30190 | 35981 ft | 483 kts | 24° |
| 2026-05-06 04:50 | 43.93759 | -4.26013 | 35986 ft | 484 kts | 24° |
| 2026-05-06 04:51 | 43.99805 | -4.21828 | 35974 ft | 483 kts | 25° |
| 2026-05-06 04:51 | 44.05828 | -4.17647 | 35966 ft | 483 kts | 25° |
| 2026-05-06 04:52 | 44.11869 | -4.13446 | 35971 ft | 484 kts | 25° |
| 2026-05-06 04:52 | 44.17923 | -4.09225 | 35974 ft | 482 kts | 25° |
| 2026-05-06 04:53 | 44.23954 | -4.05011 | 35967 ft | 482 kts | 25° |
| 2026-05-06 04:53 | 44.29974 | -4.00795 | 35973 ft | 483 kts | 25° |
| 2026-05-06 04:54 | 44.35919 | -3.96476 | 35962 ft | 482 kts | 27° |
| 2026-05-06 04:54 | 44.41809 | -3.91770 | 35966 ft | 482 kts | 28° |
| 2026-05-06 04:55 | 44.47675 | -3.87088 | 35963 ft | 481 kts | 28° |
| 2026-05-06 04:55 | 44.53489 | -3.82452 | 35959 ft | 482 kts | 28° |
| 2026-05-06 04:56 | 44.59348 | -3.77777 | 35961 ft | 481 kts | 27° |
| 2026-05-06 04:56 | 44.65142 | -3.73148 | 35934 ft | 481 kts | 27° |
| 2026-05-06 04:57 | 44.71007 | -3.68453 | 35961 ft | 481 kts | 28° |
| 2026-05-06 04:57 | 44.76831 | -3.63782 | 35948 ft | 480 kts | 28° |
| 2026-05-06 04:58 | 44.82642 | -3.59111 | 35954 ft | 480 kts | 28° |
| 2026-05-06 04:58 | 44.88480 | -3.54407 | 35948 ft | 480 kts | 28° |
| 2026-05-06 04:59 | 44.94254 | -3.49744 | 35918 ft | 479 kts | 28° |
| 2026-05-06 04:59 | 45.00059 | -3.45044 | 35923 ft | 479 kts | 28° |
| 2026-05-06 05:00 | 45.05820 | -3.40371 | 35928 ft | 479 kts | 28° |
| 2026-05-06 05:00 | 45.11603 | -3.35668 | 35906 ft | 478 kts | 28° |
| 2026-05-06 05:01 | 45.17316 | -3.31011 | 35924 ft | 479 kts | 28° |
| 2026-05-06 05:01 | 45.23053 | -3.26322 | 35914 ft | 478 kts | 29° |
| 2026-05-06 05:02 | 45.28792 | -3.21622 | 35910 ft | 476 kts | 29° |
| 2026-05-06 05:02 | 45.34501 | -3.16935 | 35921 ft | 478 kts | 29° |
| 2026-05-06 05:03 | 45.40197 | -3.12249 | 35914 ft | 476 kts | 29° |
| 2026-05-06 05:03 | 45.45944 | -3.07508 | 35913 ft | 476 kts | 29° |
| 2026-05-06 05:04 | 45.51619 | -3.02816 | 35918 ft | 475 kts | 29° |
| 2026-05-06 05:04 | 45.57309 | -2.98101 | 35912 ft | 475 kts | 29° |
| 2026-05-06 05:05 | 45.62978 | -2.93392 | 35908 ft | 476 kts | 29° |
| 2026-05-06 05:05 | 45.68684 | -2.88641 | 35902 ft | 475 kts | 29° |
| 2026-05-06 05:06 | 45.74371 | -2.83894 | 35895 ft | 474 kts | 29° |
| 2026-05-06 05:06 | 45.80080 | -2.79118 | 35904 ft | 474 kts | 29° |
| 2026-05-06 05:07 | 45.85755 | -2.74358 | 35907 ft | 472 kts | 29° |
| 2026-05-06 05:07 | 45.91437 | -2.69582 | 35924 ft | 473 kts | 29° |
| 2026-05-06 05:08 | 45.97137 | -2.64778 | 35898 ft | 473 kts | 29° |
| 2026-05-06 05:08 | 46.02793 | -2.60001 | 35903 ft | 473 kts | 29° |
| 2026-05-06 05:09 | 46.08455 | -2.55207 | 35896 ft | 473 kts | 29° |
| 2026-05-06 05:09 | 46.14079 | -2.50433 | 35899 ft | 473 kts | 29° |
| 2026-05-06 05:10 | 46.19781 | -2.45575 | 35898 ft | 474 kts | 30° |
| 2026-05-06 05:10 | 46.25442 | -2.40716 | 35884 ft | 473 kts | 30° |
| 2026-05-06 05:11 | 46.31104 | -2.35845 | 35895 ft | 474 kts | 30° |
| 2026-05-06 05:11 | 46.36693 | -2.31026 | 35897 ft | 473 kts | 30° |
| 2026-05-06 05:12 | 46.42324 | -2.26159 | 35901 ft | 473 kts | 30° |
| 2026-05-06 05:12 | 46.47969 | -2.21269 | 35883 ft | 473 kts | 30° |
| 2026-05-06 05:13 | 46.53626 | -2.16356 | 35889 ft | 474 kts | 30° |
| 2026-05-06 05:13 | 46.59258 | -2.11453 | 35896 ft | 473 kts | 30° |
| 2026-05-06 05:14 | 46.64904 | -2.06525 | 35895 ft | 472 kts | 30° |
| 2026-05-06 05:14 | 46.70525 | -2.01608 | 35884 ft | 471 kts | 30° |
| 2026-05-06 05:15 | 46.76180 | -1.96648 | 35871 ft | 471 kts | 30° |
| 2026-05-06 05:15 | 46.81771 | -1.91733 | 35886 ft | 473 kts | 30° |
| 2026-05-06 05:16 | 46.87391 | -1.86780 | 35890 ft | 472 kts | 30° |
| 2026-05-06 05:16 | 46.93043 | -1.81787 | 35893 ft | 473 kts | 30° |
| 2026-05-06 05:17 | 46.98631 | -1.76837 | 35892 ft | 471 kts | 30° |
| 2026-05-06 05:17 | 47.04238 | -1.71858 | 35900 ft | 472 kts | 31° |
| 2026-05-06 05:18 | 47.09878 | -1.66838 | 35899 ft | 472 kts | 31° |
| 2026-05-06 05:18 | 47.14965 | -1.61124 | 35925 ft | 475 kts | 45° |
| 2026-05-06 05:19 | 47.18854 | -1.53263 | 35901 ft | 477 kts | 60° |
| 2026-05-06 05:19 | 47.21949 | -1.44626 | 35893 ft | 478 kts | 61° |
| 2026-05-06 05:20 | 47.24991 | -1.36010 | 35890 ft | 478 kts | 61° |
| 2026-05-06 05:20 | 47.28013 | -1.27408 | 35882 ft | 478 kts | 62° |
| 2026-05-06 05:21 | 47.31043 | -1.18749 | 35902 ft | 480 kts | 62° |
| 2026-05-06 05:21 | 47.34085 | -1.10018 | 35893 ft | 479 kts | 62° |
| 2026-05-06 05:22 | 47.37133 | -1.01235 | 35882 ft | 479 kts | 62° |
| 2026-05-06 05:22 | 47.40145 | -0.92528 | 35888 ft | 480 kts | 62° |
| 2026-05-06 05:23 | 47.43172 | -0.83750 | 35883 ft | 479 kts | 62° |
| 2026-05-06 05:23 | 47.47678 | -0.70623 | 35883 ft | 479 kts | 62° |
| 2026-05-06 05:24 | 47.50677 | -0.61850 | 35881 ft | 480 kts | 62° |
| 2026-05-06 05:24 | 47.53660 | -0.53094 | 35904 ft | 479 kts | 62° |
| 2026-05-06 05:25 | 47.56651 | -0.44284 | 35882 ft | 480 kts | 62° |
| 2026-05-06 05:25 | 47.59630 | -0.35480 | 35896 ft | 480 kts | 62° |
| 2026-05-06 05:26 | 47.62568 | -0.26770 | 35881 ft | 477 kts | 63° |
| 2026-05-06 05:26 | 47.64040 | -0.22393 | 35519 ft | 473 kts | 63° |
| 2026-05-06 05:26 | 47.65502 | -0.18040 | 34797 ft | 479 kts | 63° |
| 2026-05-06 05:27 | 47.66975 | -0.13647 | 33933 ft | 479 kts | 63° |
| 2026-05-06 05:27 | 47.68447 | -0.09244 | 33114 ft | 472 kts | 63° |
| 2026-05-06 05:27 | 47.69870 | -0.04986 | 32267 ft | 466 kts | 63° |
| 2026-05-06 05:27 | 47.71290 | -0.00730 | 31451 ft | 464 kts | 63° |
| 2026-05-06 05:28 | 47.72711 | 0.03537 | 30583 ft | 460 kts | 63° |
| 2026-05-06 05:28 | 47.74096 | 0.07704 | 30159 ft | 445 kts | 63° |
| 2026-05-06 05:28 | 47.75445 | 0.11768 | 29753 ft | 438 kts | 63° |
| 2026-05-06 05:28 | 47.76777 | 0.15788 | 29268 ft | 432 kts | 63° |
| 2026-05-06 05:29 | 47.78086 | 0.19745 | 28744 ft | 427 kts | 63° |
| 2026-05-06 05:29 | 47.79440 | 0.23500 | 28256 ft | 421 kts | 57° |
| 2026-05-06 05:29 | 47.81128 | 0.26941 | 27798 ft | 415 kts | 49° |
| 2026-05-06 05:29 | 47.83160 | 0.30002 | 27436 ft | 416 kts | 41° |
| 2026-05-06 05:30 | 47.85489 | 0.32651 | 27156 ft | 434 kts | 36° |
| 2026-05-06 05:30 | 47.87970 | 0.35210 | 26826 ft | 432 kts | 36° |
| 2026-05-06 05:30 | 47.90336 | 0.37648 | 26501 ft | 427 kts | 36° |
| 2026-05-06 05:30 | 47.92759 | 0.40159 | 26161 ft | 423 kts | 36° |
| 2026-05-06 05:31 | 47.95166 | 0.42663 | 25827 ft | 422 kts | 36° |
| 2026-05-06 05:31 | 47.97570 | 0.45170 | 25511 ft | 422 kts | 36° |
| 2026-05-06 05:31 | 47.99973 | 0.47683 | 25174 ft | 421 kts | 36° |
| 2026-05-06 05:31 | 48.02358 | 0.50182 | 24842 ft | 418 kts | 36° |
| 2026-05-06 05:32 | 48.04698 | 0.52641 | 24531 ft | 418 kts | 36° |
| 2026-05-06 05:32 | 48.07069 | 0.55136 | 24210 ft | 418 kts | 36° |
| 2026-05-06 05:32 | 48.09442 | 0.57636 | 23867 ft | 413 kts | 36° |
| 2026-05-06 05:32 | 48.11643 | 0.59958 | 23573 ft | 410 kts | 36° |
| 2026-05-06 05:33 | 48.14022 | 0.62472 | 23259 ft | 411 kts | 36° |
| 2026-05-06 05:33 | 48.16291 | 0.64873 | 22934 ft | 412 kts | 36° |
| 2026-05-06 05:33 | 48.18588 | 0.67307 | 22620 ft | 410 kts | 36° |
| 2026-05-06 05:33 | 48.20899 | 0.69758 | 22307 ft | 407 kts | 36° |
| 2026-05-06 05:34 | 48.23238 | 0.72242 | 21987 ft | 406 kts | 36° |
| 2026-05-06 05:34 | 48.25558 | 0.74708 | 21671 ft | 405 kts | 37° |
| 2026-05-06 05:34 | 48.27863 | 0.77162 | 21348 ft | 404 kts | 36° |
| 2026-05-06 05:34 | 48.30142 | 0.79590 | 21031 ft | 403 kts | 36° |
| 2026-05-06 05:35 | 48.32435 | 0.82121 | 20706 ft | 401 kts | 41° |
| 2026-05-06 05:35 | 48.34390 | 0.85033 | 20395 ft | 399 kts | 51° |
| 2026-05-06 05:35 | 48.35990 | 0.88449 | 20082 ft | 398 kts | 60° |
| 2026-05-06 05:35 | 48.37309 | 0.92105 | 19780 ft | 397 kts | 62° |
| 2026-05-06 05:36 | 48.38591 | 0.95776 | 19470 ft | 395 kts | 63° |
| 2026-05-06 05:36 | 48.39881 | 0.99486 | 19157 ft | 392 kts | 63° |
| 2026-05-06 05:36 | 48.41145 | 1.03127 | 18856 ft | 392 kts | 63° |
| 2026-05-06 05:36 | 48.42399 | 1.06754 | 18353 ft | 394 kts | 63° |
| 2026-05-06 05:37 | 48.43672 | 1.10447 | 17649 ft | 396 kts | 63° |
| 2026-05-06 05:37 | 48.44934 | 1.14115 | 16993 ft | 396 kts | 62° |
| 2026-05-06 05:37 | 48.46206 | 1.17818 | 16358 ft | 395 kts | 62° |
| 2026-05-06 05:37 | 48.47464 | 1.21482 | 15749 ft | 393 kts | 62° |
| 2026-05-06 05:38 | 48.48729 | 1.25178 | 15209 ft | 390 kts | 62° |
| 2026-05-06 05:38 | 48.49964 | 1.28788 | 14622 ft | 389 kts | 62° |
| 2026-05-06 05:38 | 48.51191 | 1.32381 | 14104 ft | 385 kts | 61° |
| 2026-05-06 05:38 | 48.52411 | 1.35942 | 13990 ft | 372 kts | 61° |
| 2026-05-06 05:39 | 48.53612 | 1.39438 | 13984 ft | 375 kts | 61° |
| 2026-05-06 05:39 | 48.54812 | 1.42933 | 13982 ft | 375 kts | 61° |
| 2026-05-06 05:39 | 48.56073 | 1.46393 | 13985 ft | 374 kts | 55° |
| 2026-05-06 05:39 | 48.57741 | 1.49408 | 13976 ft | 372 kts | 41° |
| 2026-05-06 05:40 | 48.59787 | 1.51740 | 13787 ft | 364 kts | 30° |
| 2026-05-06 05:40 | 48.61987 | 1.53609 | 13351 ft | 355 kts | 27° |
| 2026-05-06 05:40 | 48.64132 | 1.55330 | 12990 ft | 345 kts | 26° |
| 2026-05-06 05:40 | 48.66227 | 1.56965 | 12670 ft | 335 kts | 25° |
| 2026-05-06 05:41 | 48.68286 | 1.58538 | 12357 ft | 325 kts | 25° |
| 2026-05-06 05:41 | 48.70302 | 1.60054 | 12053 ft | 316 kts | 25° |
| 2026-05-06 05:41 | 48.72250 | 1.61507 | 11765 ft | 307 kts | 25° |
| 2026-05-06 05:41 | 48.74041 | 1.63207 | 11474 ft | 300 kts | 38° |
| 2026-05-06 05:42 | 48.75467 | 1.65445 | 11191 ft | 293 kts | 52° |
| 2026-05-06 05:42 | 48.76540 | 1.68071 | 10920 ft | 286 kts | 58° |
| 2026-05-06 05:42 | 48.77495 | 1.70642 | 10676 ft | 278 kts | 59° |
| 2026-05-06 05:42 | 48.78428 | 1.73210 | 10408 ft | 274 kts | 59° |
| 2026-05-06 05:43 | 48.79339 | 1.75749 | 10145 ft | 270 kts | 59° |
| 2026-05-06 05:43 | 48.80227 | 1.78240 | 9886 ft | 268 kts | 59° |
| 2026-05-06 05:43 | 48.81114 | 1.80727 | 9611 ft | 269 kts | 59° |
| 2026-05-06 05:43 | 48.82002 | 1.83224 | 9337 ft | 267 kts | 59° |
| 2026-05-06 05:44 | 48.82876 | 1.85684 | 9068 ft | 264 kts | 59° |
| 2026-05-06 05:44 | 48.83748 | 1.88139 | 8793 ft | 263 kts | 59° |
| 2026-05-06 05:44 | 48.84617 | 1.90589 | 8532 ft | 261 kts | 59° |
| 2026-05-06 05:44 | 48.85475 | 1.93011 | 8265 ft | 260 kts | 59° |
| 2026-05-06 05:45 | 48.86333 | 1.95433 | 7996 ft | 258 kts | 59° |
| 2026-05-06 05:45 | 48.87191 | 1.97859 | 7743 ft | 258 kts | 59° |
| 2026-05-06 05:45 | 48.88163 | 2.00103 | 7483 ft | 253 kts | 46° |
| 2026-05-06 05:45 | 48.89359 | 2.02052 | 7259 ft | 252 kts | 44° |
| 2026-05-06 05:46 | 48.90599 | 2.03993 | 6990 ft | 251 kts | 44° |
| 2026-05-06 05:46 | 48.91814 | 2.05897 | 6767 ft | 250 kts | 44° |
| 2026-05-06 05:46 | 48.93017 | 2.07791 | 6524 ft | 249 kts | 44° |
| 2026-05-06 05:46 | 48.94223 | 2.09693 | 6289 ft | 248 kts | 44° |
| 2026-05-06 05:47 | 48.95432 | 2.11602 | 6038 ft | 246 kts | 44° |
| 2026-05-06 05:47 | 48.96392 | 2.13742 | 5770 ft | 249 kts | 68° |
| 2026-05-06 05:47 | 48.96766 | 2.16320 | 5488 ft | 247 kts | 77° |
| 2026-05-06 05:47 | 48.97014 | 2.18913 | 5195 ft | 243 kts | 78° |
| 2026-05-06 05:48 | 48.97225 | 2.21439 | 4911 ft | 241 kts | 79° |
| 2026-05-06 05:48 | 48.97410 | 2.23931 | 4580 ft | 234 kts | 79° |
| 2026-05-06 05:48 | 48.97574 | 2.26335 | 4283 ft | 225 kts | 79° |
| 2026-05-06 05:48 | 48.97724 | 2.28671 | 3986 ft | 216 kts | 79° |
| 2026-05-06 05:49 | 48.97855 | 2.30861 | 3722 ft | 194 kts | 79° |
| 2026-05-06 05:49 | 48.97975 | 2.32844 | 3473 ft | 183 kts | 78° |
| 2026-05-06 05:49 | 48.98083 | 2.34709 | 3240 ft | 171 kts | 78° |
| 2026-05-06 05:49 | 48.98186 | 2.36500 | 3013 ft | 167 kts | 78° |
| 2026-05-06 05:50 | 48.98282 | 2.38229 | 2790 ft | 157 kts | 78° |
| 2026-05-06 05:50 | 48.98373 | 2.39831 | 2589 ft | 155 kts | 77° |
| 2026-05-06 05:50 | 48.98464 | 2.41462 | 2366 ft | 152 kts | 77° |
| 2026-05-06 05:50 | 48.98552 | 2.43080 | 2137 ft | 149 kts | 77° |
| 2026-05-06 05:51 | 48.98639 | 2.44642 | 1943 ft | 146 kts | 76° |
| 2026-05-06 05:51 | 48.98723 | 2.46166 | 1748 ft | 146 kts | 75° |
| 2026-05-06 05:51 | 48.98811 | 2.47674 | 1574 ft | 144 kts | 76° |
| 2026-05-06 05:51 | 48.98901 | 2.49252 | 1243 ft | 151 kts | 77° |
| 2026-05-06 05:52 | 48.98963 | 2.50853 | 1024 ft | 151 kts | 79° |
| 2026-05-06 05:52 | 48.99061 | 2.52436 | 912 ft | 147 kts | 79° |
| 2026-05-06 05:52 | 48.99139 | 2.53992 | 678 ft | 147 kts | 79° |
| 2026-05-06 05:52 | 48.99239 | 2.55544 | 481 ft | 147 kts | 81° |
| 2026-05-06 05:53 | 48.99317 | 2.57093 | 356 ft | 142 kts | 80° |
| 2026-05-06 05:53 | 48.99392 | 2.58393 | 340 ft | 96 kts | 85° |
| 2026-05-06 05:53 | 48.99423 | 2.58998 | 332 ft | 22 kts | 85° |
| 2026-05-06 05:53 | 48.99455 | 2.59230 | 331 ft | 21 kts | 64° |
| 2026-05-06 05:54 | 48.99518 | 2.59428 | 330 ft | 19 kts | 65° |
| 2026-05-06 05:54 | 48.99562 | 2.59576 | 331 ft | 13 kts | 65° |
| 2026-05-06 05:54 | 48.99605 | 2.59678 | 331 ft | 10 kts | 36° |
| 2026-05-06 05:54 | 48.99669 | 2.59689 | 332 ft | 8 kts | 356° |
| 2026-05-06 05:55 | 48.99724 | 2.59684 | 333 ft | 7 kts | 356° |
| 2026-05-06 05:55 | 48.99780 | 2.59679 | 333 ft | 8 kts | 356° |
| 2026-05-06 05:55 | 48.99844 | 2.59671 | 334 ft | 12 kts | 354° |
| 2026-05-06 05:55 | 48.99945 | 2.59658 | 336 ft | 17 kts | 355° |
| 2026-05-06 05:56 | 49.00027 | 2.59648 | 338 ft | 11 kts | 355° |
| 2026-05-06 05:56 | 49.00074 | 2.59592 | 339 ft | 11 kts | 283° |
| 2026-05-06 05:56 | 49.00075 | 2.59498 | 339 ft | 10 kts | 265° |
| 2026-05-06 05:56 | 49.00071 | 2.59432 | 339 ft | 7 kts | 266° |
| 2026-05-06 05:57 | 49.00082 | 2.59374 | 340 ft | 5 kts | 337° |
| 2026-05-06 05:57 | 49.00098 | 2.59367 | 340 ft | 3 kts | 356° |
| 2026-05-06 05:57 | 49.00150 | 2.59361 | 341 ft | 10 kts | 355° |
| 2026-05-06 05:57 | 49.00214 | 2.59353 | 341 ft | 9 kts | 354° |
| 2026-05-06 05:58 | 49.00276 | 2.59344 | 342 ft | 5 kts | 355° |
| 2026-05-06 05:58 | 49.00315 | 2.59323 | 343 ft | 6 kts | 300° |
| 2026-05-06 05:58 | 49.00316 | 2.59289 | 343 ft | 5 kts | 263° |
| 2026-05-06 05:58 | 49.00313 | 2.59242 | 343 ft | 2 kts | 264° |
| 2026-05-06 05:59 | 49.00312 | 2.59222 | 343 ft | 0 kts | 265° |
| 2026-05-06 05:59 | 49.00311 | 2.59216 | 343 ft | 0 kts | 265° |